Wetterdaten: Mittwoch, 01.07.2015
Datum Zeit Temp. Aussen +5cm Feuchte Auss BlattFeu 1 Luftdruck Regen Sonnenschein Regendauer Solar Windben
01.07.2015 00:00 22,1 C 18,9 C 61 % 0 lf 1018,5 hPa 0,0 l/m 0 min 0 min 0 W/m 10,5 km/h (2 Bft)
01.07.2015 00:02 22,1 C 18,9 C 61 % 0 lf 1018,5 hPa 0,0 l/m 0 min 0 min 0 W/m 8,4 km/h (2 Bft)
01.07.2015 00:05 21,9 C 18,9 C 61 % 0 lf 1018,5 hPa 0,0 l/m 0 min 0 min 0 W/m 8,4 km/h (2 Bft)
01.07.2015 00:10 21,8 C 18,3 C 61 % 0 lf 1018,5 hPa 0,0 l/m 0 min 0 min 0 W/m 8,4 km/h (2 Bft)
01.07.2015 00:11 21,8 C 18,3 C 61 % 0 lf 1018,5 hPa 0,0 l/m 0 min 0 min 0 W/m 6,3 km/h (2 Bft)
01.07.2015 00:12 21,8 C 18,3 C 61 % 0 lf 1018,5 hPa 0,0 l/m 0 min 0 min 0 W/m 12,6 km/h (3 Bft)
01.07.2015 00:13 21,8 C 18,3 C 62 % 0 lf 1018,4 hPa 0,0 l/m 0 min 0 min 0 W/m 10,5 km/h (2 Bft)
01.07.2015 00:14 21,8 C 18,3 C 62 % 0 lf 1018,5 hPa 0,0 l/m 0 min 0 min 0 W/m 6,3 km/h (2 Bft)
01.07.2015 00:15 21,8 C 18,3 C 62 % 0 lf 1018,5 hPa 0,0 l/m 0 min 0 min 0 W/m 6,3 km/h (2 Bft)
01.07.2015 00:16 21,7 C 18,3 C 62 % 0 lf 1018,5 hPa 0,0 l/m 0 min 0 min 0 W/m 12,6 km/h (3 Bft)
01.07.2015 00:17 21,7 C 18,3 C 62 % 0 lf 1018,5 hPa 0,0 l/m 0 min 0 min 0 W/m 6,3 km/h (2 Bft)
01.07.2015 00:18 21,7 C 18,3 C 62 % 0 lf 1018,4 hPa 0,0 l/m 0 min 0 min 0 W/m 4,2 km/h (1 Bft)
01.07.2015 00:19 21,7 C 18,3 C 62 % 0 lf 1018,4 hPa 0,0 l/m 0 min 0 min 0 W/m 6,3 km/h (2 Bft)
01.07.2015 00:22 21,6 C 18,3 C 62 % 0 lf 1018,4 hPa 0,0 l/m 0 min 0 min 0 W/m 6,3 km/h (2 Bft)
01.07.2015 00:24 21,6 C 18,3 C 62 % 0 lf 1018,4 hPa 0,0 l/m 0 min 0 min 0 W/m 6,3 km/h (2 Bft)
01.07.2015 00:26 21,5 C 18,3 C 62 % 0 lf 1018,4 hPa 0,0 l/m 0 min 0 min 0 W/m 6,3 km/h (2 Bft)
01.07.2015 00:28 21,5 C 18,3 C 62 % 0 lf 1018,3 hPa 0,0 l/m 0 min 0 min 0 W/m 6,3 km/h (2 Bft)
01.07.2015 00:30 21,4 C 18,3 C 62 % 0 lf 1018,4 hPa 0,0 l/m 0 min 0 min 0 W/m 4,2 km/h (1 Bft)
01.07.2015 00:32 21,4 C 17,8 C 62 % 0 lf 1018,4 hPa 0,0 l/m 0 min 0 min 0 W/m 6,3 km/h (2 Bft)
01.07.2015 00:34 21,4 C 17,8 C 62 % 0 lf 1018,4 hPa 0,0 l/m 0 min 0 min 0 W/m 4,2 km/h (1 Bft)
01.07.2015 00:36 21,3 C 17,8 C 63 % 0 lf 1018,4 hPa 0,0 l/m 0 min 0 min 0 W/m 4,2 km/h (1 Bft)
01.07.2015 00:38 21,3 C 17,8 C 63 % 0 lf 1018,4 hPa 0,0 l/m 0 min 0 min 0 W/m 2,1 km/h (1 Bft)
01.07.2015 00:40 21,2 C 17,2 C 63 % 0 lf 1018,4 hPa 0,0 l/m 0 min 0 min 0 W/m 4,2 km/h (1 Bft)
01.07.2015 00:42 21,2 C 17,2 C 63 % 0 lf 1018,4 hPa 0,0 l/m 0 min 0 min 0 W/m 8,4 km/h (2 Bft)
01.07.2015 00:44 21,2 C 17,2 C 63 % 0 lf 1018,4 hPa 0,0 l/m 0 min 0 min 0 W/m 4,2 km/h (1 Bft)
01.07.2015 00:46 21,1 C 17,2 C 63 % 0 lf 1018,4 hPa 0,0 l/m 0 min 0 min 0 W/m 4,2 km/h (1 Bft)
01.07.2015 00:48 21,1 C 17,2 C 63 % 0 lf 1018,4 hPa 0,0 l/m 0 min 0 min 0 W/m 4,2 km/h (1 Bft)
01.07.2015 00:50 21,0 C 17,2 C 64 % 0 lf 1018,4 hPa 0,0 l/m 0 min 0 min 0 W/m 6,3 km/h (2 Bft)
01.07.2015 00:52 21,0 C 17,2 C 64 % 0 lf 1018,3 hPa 0,0 l/m 0 min 0 min 0 W/m 4,2 km/h (1 Bft)
01.07.2015 00:54 20,9 C 17,2 C 64 % 0 lf 1018,4 hPa 0,0 l/m 0 min 0 min 0 W/m 4,2 km/h (1 Bft)
01.07.2015 00:56 20,9 C 16,7 C 64 % 0 lf 1018,4 hPa 0,0 l/m 0 min 0 min 0 W/m 4,2 km/h (1 Bft)
01.07.2015 00:58 20,8 C 16,7 C 64 % 0 lf 1018,3 hPa 0,0 l/m 0 min 0 min 0 W/m 6,3 km/h (2 Bft)
01.07.2015 01:00 20,8 C 16,7 C 64 % 0 lf 1018,4 hPa 0,0 l/m 0 min 0 min 0 W/m 4,2 km/h (1 Bft)
01.07.2015 01:02 20,7 C 16,7 C 64 % 0 lf 1018,4 hPa 0,0 l/m 0 min 0 min 0 W/m 6,3 km/h (2 Bft)
01.07.2015 01:04 20,7 C 16,7 C 64 % 0 lf 1018,4 hPa 0,0 l/m 0 min 0 min 0 W/m 6,3 km/h (2 Bft)
01.07.2015 01:06 20,6 C 16,7 C 65 % 0 lf 1018,4 hPa 0,0 l/m 0 min 0 min 0 W/m 4,2 km/h (1 Bft)
01.07.2015 01:08 20,6 C 16,7 C 65 % 0 lf 1018,4 hPa 0,0 l/m 0 min 0 min 0 W/m 6,3 km/h (2 Bft)
01.07.2015 01:10 20,6 C 16,7 C 65 % 0 lf 1018,4 hPa 0,0 l/m 0 min 0 min 0 W/m 4,2 km/h (1 Bft)
01.07.2015 01:12 20,5 C 16,7 C 65 % 0 lf 1018,4 hPa 0,0 l/m 0 min 0 min 0 W/m 4,2 km/h (1 Bft)
01.07.2015 01:14 20,4 C 16,7 C 65 % 0 lf 1018,3 hPa 0,0 l/m 0 min 0 min 0 W/m 4,2 km/h (1 Bft)
01.07.2015 01:16 20,4 C 16,7 C 65 % 0 lf 1018,3 hPa 0,0 l/m 0 min 0 min 0 W/m 4,2 km/h (1 Bft)
01.07.2015 01:18 20,3 C 16,7 C 65 % 0 lf 1018,3 hPa 0,0 l/m 0 min 0 min 0 W/m 4,2 km/h (1 Bft)
01.07.2015 01:20 20,3 C 16,7 C 65 % 0 lf 1018,3 hPa 0,0 l/m 0 min 0 min 0 W/m 6,3 km/h (2 Bft)
01.07.2015 01:22 20,3 C 16,1 C 65 % 0 lf 1018,3 hPa 0,0 l/m 0 min 0 min 0 W/m 6,3 km/h (2 Bft)
01.07.2015 01:24 20,2 C 16,1 C 65 % 0 lf 1018,3 hPa 0,0 l/m 0 min 0 min 0 W/m 4,2 km/h (1 Bft)
01.07.2015 01:26 20,2 C 16,1 C 66 % 0 lf 1018,3 hPa 0,0 l/m 0 min 0 min 0 W/m 6,3 km/h (2 Bft)
01.07.2015 01:28 20,1 C 16,1 C 66 % 0 lf 1018,3 hPa 0,0 l/m 0 min 0 min 0 W/m 2,1 km/h (1 Bft)
01.07.2015 01:30 20,1 C 16,1 C 66 % 0 lf 1018,3 hPa 0,0 l/m 0 min 0 min 0 W/m 6,3 km/h (2 Bft)
01.07.2015 01:32 20,0 C 16,1 C 66 % 0 lf 1018,3 hPa 0,0 l/m 0 min 0 min 0 W/m 4,2 km/h (1 Bft)
01.07.2015 01:34 19,9 C 16,1 C 67 % 0 lf 1018,4 hPa 0,0 l/m 0 min 0 min 0 W/m 2,1 km/h (1 Bft)
01.07.2015 01:36 19,9 C 16,1 C 66 % 0 lf 1018,3 hPa 0,0 l/m 0 min 0 min 0 W/m 4,2 km/h (1 Bft)
01.07.2015 01:38 19,8 C 16,1 C 67 % 0 lf 1018,3 hPa 0,0 l/m 0 min 0 min 0 W/m 2,1 km/h (1 Bft)
01.07.2015 01:40 19,8 C 16,1 C 67 % 0 lf 1018,3 hPa 0,0 l/m 0 min 0 min 0 W/m 2,1 km/h (1 Bft)
01.07.2015 01:42 19,8 C 16,1 C 67 % 0 lf 1018,3 hPa 0,0 l/m 0 min 0 min 0 W/m 0,0 km/h (0 Bft)
01.07.2015 01:44 19,7 C 16,1 C 67 % 0 lf 1018,3 hPa 0,0 l/m 0 min 0 min 0 W/m 0,0 km/h (0 Bft)
01.07.2015 01:46 19,7 C 16,1 C 67 % 0 lf 1018,3 hPa 0,0 l/m 0 min 0 min 0 W/m 2,1 km/h (1 Bft)
01.07.2015 01:48 19,6 C 16,1 C 67 % 0 lf 1018,3 hPa 0,0 l/m 0 min 0 min 0 W/m 0,0 km/h (0 Bft)
01.07.2015 01:50 19,6 C 15,6 C 68 % 0 lf 1018,3 hPa 0,0 l/m 0 min 0 min 0 W/m 0,0 km/h (0 Bft)
01.07.2015 01:52 19,5 C 15,6 C 68 % 0 lf 1018,2 hPa 0,0 l/m 0 min 0 min 0 W/m 2,1 km/h (1 Bft)
01.07.2015 01:54 19,4 C 15,6 C 68 % 0 lf 1018,3 hPa 0,0 l/m 0 min 0 min 0 W/m 2,1 km/h (1 Bft)
01.07.2015 01:56 19,4 C 15,6 C 68 % 0 lf 1018,3 hPa 0,0 l/m 0 min 0 min 0 W/m 0,0 km/h (0 Bft)
01.07.2015 01:58 19,4 C 15,6 C 68 % 0 lf 1018,3 hPa 0,0 l/m 0 min 0 min 0 W/m 2,1 km/h (1 Bft)
01.07.2015 02:00 19,3 C 15,6 C 68 % 0 lf 1018,3 hPa 0,0 l/m 0 min 0 min 0 W/m 2,1 km/h (1 Bft)
01.07.2015 02:02 19,3 C 15,6 C 68 % 0 lf 1018,3 hPa 0,0 l/m 0 min 0 min 0 W/m 2,1 km/h (1 Bft)
01.07.2015 02:04 19,2 C 15,6 C 69 % 0 lf 1018,3 hPa 0,0 l/m 0 min 0 min 0 W/m 2,1 km/h (1 Bft)
01.07.2015 02:06 19,2 C 15,6 C 69 % 0 lf 1018,3 hPa 0,0 l/m 0 min 0 min 0 W/m 4,2 km/h (1 Bft)
01.07.2015 02:08 19,1 C 15,6 C 69 % 0 lf 1018,3 hPa 0,0 l/m 0 min 0 min 0 W/m 4,2 km/h (1 Bft)
01.07.2015 02:10 19,1 C 15,6 C 70 % 0 lf 1018,3 hPa 0,0 l/m 0 min 0 min 0 W/m 4,2 km/h (1 Bft)
01.07.2015 02:12 19,0 C 15,6 C 70 % 0 lf 1018,3 hPa 0,0 l/m 0 min 0 min 0 W/m 4,2 km/h (1 Bft)
01.07.2015 02:14 19,0 C 15,6 C 70 % 0 lf 1018,3 hPa 0,0 l/m 0 min 0 min 0 W/m 2,1 km/h (1 Bft)
01.07.2015 02:16 18,9 C 15,6 C 71 % 0 lf 1018,3 hPa 0,0 l/m 0 min 0 min 0 W/m 2,1 km/h (1 Bft)
01.07.2015 02:18 18,9 C 15,6 C 71 % 0 lf 1018,2 hPa 0,0 l/m 0 min 0 min 0 W/m 4,2 km/h (1 Bft)
01.07.2015 02:20 18,9 C 15,0 C 71 % 0 lf 1018,2 hPa 0,0 l/m 0 min 0 min 0 W/m 4,2 km/h (1 Bft)
01.07.2015 02:22 18,8 C 15,0 C 71 % 0 lf 1018,2 hPa 0,0 l/m 0 min 0 min 0 W/m 4,2 km/h (1 Bft)
01.07.2015 02:24 18,8 C 15,0 C 71 % 0 lf 1018,2 hPa 0,0 l/m 0 min 0 min 0 W/m 2,1 km/h (1 Bft)
01.07.2015 02:26 18,7 C 15,0 C 71 % 0 lf 1018,2 hPa 0,0 l/m 0 min 0 min 0 W/m 2,1 km/h (1 Bft)
01.07.2015 02:28 18,7 C 15,0 C 71 % 0 lf 1018,2 hPa 0,0 l/m 0 min 0 min 0 W/m 2,1 km/h (1 Bft)
01.07.2015 02:30 18,6 C 15,0 C 72 % 0 lf 1018,2 hPa 0,0 l/m 0 min 0 min 0 W/m 2,1 km/h (1 Bft)
01.07.2015 02:32 18,6 C 15,0 C 72 % 0 lf 1018,2 hPa 0,0 l/m 0 min 0 min 0 W/m 4,2 km/h (1 Bft)
01.07.2015 02:34 18,5 C 15,0 C 72 % 0 lf 1018,1 hPa 0,0 l/m 0 min 0 min 0 W/m 4,2 km/h (1 Bft)
01.07.2015 02:36 18,5 C 15,0 C 72 % 0 lf 1018,1 hPa 0,0 l/m 0 min 0 min 0 W/m 4,2 km/h (1 Bft)
01.07.2015 02:38 18,4 C 15,0 C 72 % 0 lf 1018,1 hPa 0,0 l/m 0 min 0 min 0 W/m 4,2 km/h (1 Bft)
01.07.2015 02:40 18,4 C 15,0 C 73 % 0 lf 1018,1 hPa 0,0 l/m 0 min 0 min 0 W/m 6,3 km/h (2 Bft)
01.07.2015 02:42 18,4 C 15,0 C 73 % 0 lf 1018,1 hPa 0,0 l/m 0 min 0 min 0 W/m 10,5 km/h (2 Bft)
01.07.2015 02:44 18,3 C 15,0 C 73 % 0 lf 1018,0 hPa 0,0 l/m 0 min 0 min 0 W/m 4,2 km/h (1 Bft)
01.07.2015 02:46 18,3 C 15,0 C 73 % 0 lf 1018,1 hPa 0,0 l/m 0 min 0 min 0 W/m 4,2 km/h (1 Bft)
01.07.2015 02:48 18,2 C 15,0 C 73 % 0 lf 1018,0 hPa 0,0 l/m 0 min 0 min 0 W/m 8,4 km/h (2 Bft)
01.07.2015 02:50 18,2 C 15,0 C 74 % 0 lf 1018,0 hPa 0,0 l/m 0 min 0 min 0 W/m 12,6 km/h (3 Bft)
01.07.2015 02:52 18,2 C 15,0 C 74 % 0 lf 1018,0 hPa 0,0 l/m 0 min 0 min 0 W/m 10,5 km/h (2 Bft)
01.07.2015 02:54 18,1 C 15,6 C 74 % 0 lf 1018,0 hPa 0,0 l/m 0 min 0 min 0 W/m 8,4 km/h (2 Bft)
01.07.2015 02:56 18,1 C 15,6 C 74 % 0 lf 1018,0 hPa 0,0 l/m 0 min 0 min 0 W/m 8,4 km/h (2 Bft)
01.07.2015 02:58 18,1 C 15,6 C 74 % 0 lf 1018,0 hPa 0,0 l/m 0 min 0 min 0 W/m 4,2 km/h (1 Bft)
01.07.2015 03:00 18,0 C 15,0 C 74 % 0 lf 1018,0 hPa 0,0 l/m 0 min 0 min 0 W/m 2,1 km/h (1 Bft)
01.07.2015 03:02 18,0 C 15,0 C 75 % 0 lf 1018,0 hPa 0,0 l/m 0 min 0 min 0 W/m 2,1 km/h (1 Bft)
01.07.2015 03:04 17,9 C 15,0 C 75 % 0 lf 1018,0 hPa 0,0 l/m 0 min 0 min 0 W/m 4,2 km/h (1 Bft)
01.07.2015 03:06 17,9 C 15,0 C 75 % 0 lf 1018,1 hPa 0,0 l/m 0 min 0 min 0 W/m 4,2 km/h (1 Bft)
01.07.2015 03:08 17,9 C 15,0 C 75 % 0 lf 1018,0 hPa 0,0 l/m 0 min 0 min 0 W/m 4,2 km/h (1 Bft)
01.07.2015 03:10 17,9 C 15,0 C 75 % 0 lf 1018,0 hPa 0,0 l/m 0 min 0 min 0 W/m 4,2 km/h (1 Bft)
01.07.2015 03:12 17,8 C 15,0 C 75 % 0 lf 1018,0 hPa 0,0 l/m 0 min 0 min 0 W/m 4,2 km/h (1 Bft)
01.07.2015 03:14 17,8 C 15,0 C 75 % 0 lf 1018,0 hPa 0,0 l/m 0 min 0 min 0 W/m 4,2 km/h (1 Bft)
01.07.2015 03:16 17,8 C 15,0 C 74 % 0 lf 1018,0 hPa 0,0 l/m 0 min 0 min 0 W/m 4,2 km/h (1 Bft)
01.07.2015 03:18 17,8 C 15,0 C 74 % 0 lf 1018,0 hPa 0,0 l/m 0 min 0 min 0 W/m 4,2 km/h (1 Bft)
01.07.2015 03:20 17,8 C 15,0 C 74 % 0 lf 1018,1 hPa 0,0 l/m 0 min 0 min 0 W/m 4,2 km/h (1 Bft)
01.07.2015 03:22 17,7 C 15,0 C 74 % 0 lf 1018,0 hPa 0,0 l/m 0 min 0 min 0 W/m 4,2 km/h (1 Bft)
01.07.2015 03:24 17,7 C 15,0 C 74 % 0 lf 1018,0 hPa 0,0 l/m 0 min 0 min 0 W/m 4,2 km/h (1 Bft)
01.07.2015 03:26 17,7 C 14,4 C 75 % 0 lf 1018,0 hPa 0,0 l/m 0 min 0 min 0 W/m 4,2 km/h (1 Bft)
01.07.2015 03:28 17,7 C 14,4 C 75 % 0 lf 1018,0 hPa 0,0 l/m 0 min 0 min 0 W/m 4,2 km/h (1 Bft)
01.07.2015 03:30 17,7 C 14,4 C 75 % 0 lf 1018,0 hPa 0,0 l/m 0 min 0 min 0 W/m 4,2 km/h (1 Bft)
01.07.2015 03:32 17,6 C 14,4 C 75 % 0 lf 1018,0 hPa 0,0 l/m 0 min 0 min 0 W/m 4,2 km/h (1 Bft)
01.07.2015 03:34 17,6 C 14,4 C 75 % 0 lf 1018,0 hPa 0,0 l/m 0 min 0 min 0 W/m 6,3 km/h (2 Bft)
01.07.2015 03:36 17,6 C 14,4 C 76 % 0 lf 1018,0 hPa 0,0 l/m 0 min 0 min 0 W/m 10,5 km/h (2 Bft)
01.07.2015 03:38 17,6 C 14,4 C 76 % 0 lf 1018,0 hPa 0,0 l/m 0 min 0 min 0 W/m 6,3 km/h (2 Bft)
01.07.2015 03:40 17,5 C 14,4 C 76 % 0 lf 1018,0 hPa 0,0 l/m 0 min 0 min 0 W/m 4,2 km/h (1 Bft)
01.07.2015 03:42 17,5 C 14,4 C 76 % 0 lf 1018,0 hPa 0,0 l/m 0 min 0 min 0 W/m 4,2 km/h (1 Bft)
01.07.2015 03:44 17,4 C 14,4 C 76 % 0 lf 1018,0 hPa 0,0 l/m 0 min 0 min 0 W/m 6,3 km/h (2 Bft)
01.07.2015 03:46 17,4 C 14,4 C 77 % 0 lf 1018,0 hPa 0,0 l/m 0 min 0 min 0 W/m 4,2 km/h (1 Bft)
01.07.2015 03:48 17,4 C 14,4 C 77 % 0 lf 1018,1 hPa 0,0 l/m 0 min 0 min 0 W/m 4,2 km/h (1 Bft)
01.07.2015 03:50 17,4 C 14,4 C 77 % 0 lf 1018,1 hPa 0,0 l/m 0 min 0 min 0 W/m 4,2 km/h (1 Bft)
01.07.2015 03:52 17,4 C 14,4 C 77 % 0 lf 1018,0 hPa 0,0 l/m 0 min 0 min 0 W/m 6,3 km/h (2 Bft)
01.07.2015 03:54 17,3 C 14,4 C 77 % 0 lf 1018,0 hPa 0,0 l/m 0 min 0 min 0 W/m 4,2 km/h (1 Bft)
01.07.2015 03:56 17,3 C 14,4 C 78 % 0 lf 1018,0 hPa 0,0 l/m 0 min 0 min 0 W/m 4,2 km/h (1 Bft)
01.07.2015 03:58 17,3 C 14,4 C 78 % 0 lf 1018,0 hPa 0,0 l/m 0 min 0 min 0 W/m 4,2 km/h (1 Bft)
01.07.2015 04:00 17,3 C 14,4 C 78 % 0 lf 1018,0 hPa 0,0 l/m 0 min 0 min 0 W/m 4,2 km/h (1 Bft)
01.07.2015 04:02 17,2 C 14,4 C 78 % 0 lf 1018,0 hPa 0,0 l/m 0 min 0 min 0 W/m 4,2 km/h (1 Bft)
01.07.2015 04:04 17,2 C 14,4 C 78 % 0 lf 1018,0 hPa 0,0 l/m 0 min 0 min 0 W/m 4,2 km/h (1 Bft)
01.07.2015 04:06 17,2 C 14,4 C 78 % 0 lf 1017,9 hPa 0,0 l/m 0 min 0 min 0 W/m 6,3 km/h (2 Bft)
01.07.2015 04:08 17,2 C 14,4 C 78 % 0 lf 1018,0 hPa 0,0 l/m 0 min 0 min 0 W/m 4,2 km/h (1 Bft)
01.07.2015 04:10 17,2 C 14,4 C 78 % 0 lf 1018,0 hPa 0,0 l/m 0 min 0 min 0 W/m 4,2 km/h (1 Bft)
01.07.2015 04:12 17,2 C 14,4 C 78 % 0 lf 1018,0 hPa 0,0 l/m 0 min 0 min 0 W/m 4,2 km/h (1 Bft)
01.07.2015 04:14 17,2 C 14,4 C 78 % 0 lf 1018,0 hPa 0,0 l/m 0 min 0 min 0 W/m 4,2 km/h (1 Bft)
01.07.2015 04:16 17,1 C 14,4 C 79 % 0 lf 1017,9 hPa 0,0 l/m 0 min 0 min 0 W/m 4,2 km/h (1 Bft)
01.07.2015 04:18 17,1 C 14,4 C 79 % 0 lf 1017,9 hPa 0,0 l/m 0 min 0 min 0 W/m 4,2 km/h (1 Bft)
01.07.2015 04:20 17,1 C 14,4 C 79 % 0 lf 1018,0 hPa 0,0 l/m 0 min 0 min 0 W/m 4,2 km/h (1 Bft)
01.07.2015 04:22 17,1 C 14,4 C 79 % 0 lf 1017,9 hPa 0,0 l/m 0 min 0 min 0 W/m 4,2 km/h (1 Bft)
01.07.2015 04:24 17,1 C 14,4 C 79 % 0 lf 1017,9 hPa 0,0 l/m 0 min 0 min 0 W/m 4,2 km/h (1 Bft)
01.07.2015 04:26 17,1 C 14,4 C 79 % 0 lf 1018,0 hPa 0,0 l/m 0 min 0 min 0 W/m 2,1 km/h (1 Bft)
01.07.2015 04:27 17,1 C 14,4 C 79 % 0 lf 1018,0 hPa 0,0 l/m 0 min 0 min 0 W/m 2,1 km/h (1 Bft)
01.07.2015 04:28 17,1 C 14,4 C 79 % 0 lf 1018,0 hPa 0,0 l/m 0 min 0 min 0 W/m 2,1 km/h (1 Bft)
01.07.2015 04:29 17,1 C 14,4 C 79 % 0 lf 1018,0 hPa 0,0 l/m 0 min 0 min 0 W/m 4,2 km/h (1 Bft)
01.07.2015 04:30 17,0 C 14,4 C 79 % 0 lf 1018,0 hPa 0,0 l/m 0 min 0 min 0 W/m 2,1 km/h (1 Bft)
01.07.2015 04:34 17,0 C 14,4 C 79 % 0 lf 1018,0 hPa 0,0 l/m 0 min 0 min 0 W/m 4,2 km/h (1 Bft)
01.07.2015 04:36 17,0 C 14,4 C 80 % 0 lf 1017,9 hPa 0,0 l/m 0 min 0 min 0 W/m 4,2 km/h (1 Bft)
01.07.2015 04:38 17,0 C 14,4 C 80 % 0 lf 1017,9 hPa 0,0 l/m 0 min 0 min 0 W/m 4,2 km/h (1 Bft)
01.07.2015 04:39 16,9 C 14,4 C 80 % 0 lf 1017,9 hPa 0,0 l/m 0 min 0 min 0 W/m 4,2 km/h (1 Bft)
01.07.2015 04:40 17,0 C 14,4 C 80 % 0 lf 1018,0 hPa 0,0 l/m 0 min 0 min 0 W/m 4,2 km/h (1 Bft)
01.07.2015 04:41 16,9 C 14,4 C 80 % 0 lf 1017,9 hPa 0,0 l/m 0 min 0 min 0 W/m 4,2 km/h (1 Bft)
01.07.2015 04:44 16,9 C 14,4 C 80 % 0 lf 1017,9 hPa 0,0 l/m 0 min 0 min 0 W/m 6,3 km/h (2 Bft)
01.07.2015 04:46 16,9 C 14,4 C 80 % 0 lf 1017,9 hPa 0,0 l/m 0 min 0 min 0 W/m 4,2 km/h (1 Bft)
01.07.2015 04:48 16,9 C 14,4 C 80 % 0 lf 1017,9 hPa 0,0 l/m 0 min 0 min 0 W/m 6,3 km/h (2 Bft)
01.07.2015 04:50 16,9 C 14,4 C 80 % 0 lf 1017,9 hPa 0,0 l/m 0 min 0 min 0 W/m 4,2 km/h (1 Bft)
01.07.2015 04:52 16,9 C 14,4 C 80 % 0 lf 1017,9 hPa 0,0 l/m 0 min 0 min 0 W/m 4,2 km/h (1 Bft)
01.07.2015 04:54 16,9 C 14,4 C 80 % 0 lf 1017,9 hPa 0,0 l/m 0 min 0 min 0 W/m 4,2 km/h (1 Bft)
01.07.2015 04:56 16,9 C 14,4 C 80 % 0 lf 1017,9 hPa 0,0 l/m 0 min 0 min 0 W/m 6,3 km/h (2 Bft)
01.07.2015 04:58 16,9 C 14,4 C 80 % 0 lf 1017,9 hPa 0,0 l/m 0 min 0 min 0 W/m 6,3 km/h (2 Bft)
01.07.2015 05:00 16,9 C 14,4 C 80 % 0 lf 1017,9 hPa 0,0 l/m 0 min 0 min 0 W/m 6,3 km/h (2 Bft)
01.07.2015 05:02 16,9 C 14,4 C 80 % 0 lf 1018,0 hPa 0,0 l/m 0 min 0 min 0 W/m 6,3 km/h (2 Bft)
01.07.2015 05:04 16,9 C 14,4 C 80 % 0 lf 1018,0 hPa 0,0 l/m 0 min 0 min 5 W/m 6,3 km/h (2 Bft)
01.07.2015 05:06 16,9 C 14,4 C 80 % 0 lf 1017,9 hPa 0,0 l/m 0 min 0 min 5 W/m 6,3 km/h (2 Bft)
01.07.2015 05:08 16,9 C 14,4 C 80 % 0 lf 1018,0 hPa 0,0 l/m 0 min 0 min 5 W/m 6,3 km/h (2 Bft)
01.07.2015 05:09 16,9 C 14,4 C 80 % 0 lf 1018,0 hPa 0,0 l/m 0 min 0 min 5 W/m 6,3 km/h (2 Bft)
01.07.2015 05:10 16,9 C 14,4 C 80 % 0 lf 1018,0 hPa 0,0 l/m 0 min 0 min 5 W/m 6,3 km/h (2 Bft)
01.07.2015 05:11 16,9 C 14,4 C 80 % 0 lf 1018,1 hPa 0,0 l/m 0 min 0 min 5 W/m 6,3 km/h (2 Bft)
01.07.2015 05:14 16,9 C 14,4 C 80 % 0 lf 1018,0 hPa 0,0 l/m 0 min 0 min 6 W/m 6,3 km/h (2 Bft)
01.07.2015 05:18 16,9 C 14,4 C 80 % 0 lf 1018,1 hPa 0,0 l/m 0 min 0 min 7 W/m 6,3 km/h (2 Bft)
01.07.2015 05:20 16,8 C 14,4 C 80 % 0 lf 1018,1 hPa 0,0 l/m 0 min 0 min 7 W/m 4,2 km/h (1 Bft)
01.07.2015 05:22 16,9 C 14,4 C 80 % 0 lf 1018,1 hPa 0,0 l/m 0 min 0 min 9 W/m 6,3 km/h (2 Bft)
01.07.2015 05:24 16,9 C 14,4 C 81 % 0 lf 1018,1 hPa 0,0 l/m 0 min 0 min 9 W/m 6,3 km/h (2 Bft)
01.07.2015 05:26 16,8 C 14,4 C 81 % 0 lf 1018,0 hPa 0,0 l/m 0 min 0 min 11 W/m 6,3 km/h (2 Bft)
01.07.2015 05:28 16,8 C 15,0 C 81 % 0 lf 1018,1 hPa 0,0 l/m 0 min 0 min 11 W/m 6,3 km/h (2 Bft)
01.07.2015 05:30 16,8 C 15,0 C 81 % 0 lf 1018,0 hPa 0,0 l/m 0 min 0 min 11 W/m 6,3 km/h (2 Bft)
01.07.2015 05:32 16,8 C 15,0 C 80 % 0 lf 1018,1 hPa 0,0 l/m 0 min 0 min 12 W/m 8,4 km/h (2 Bft)
01.07.2015 05:34 16,8 C 15,0 C 81 % 0 lf 1018,1 hPa 0,0 l/m 0 min 0 min 12 W/m 8,4 km/h (2 Bft)
01.07.2015 05:36 16,9 C 15,0 C 80 % 0 lf 1018,0 hPa 0,0 l/m 0 min 0 min 14 W/m 8,4 km/h (2 Bft)
01.07.2015 05:38 16,9 C 15,0 C 81 % 0 lf 1018,1 hPa 0,0 l/m 0 min 0 min 15 W/m 8,4 km/h (2 Bft)
01.07.2015 05:40 16,9 C 15,0 C 81 % 0 lf 1018,0 hPa 0,0 l/m 0 min 0 min 16 W/m 6,3 km/h (2 Bft)
01.07.2015 05:42 16,9 C 15,0 C 81 % 0 lf 1018,1 hPa 0,0 l/m 0 min 0 min 18 W/m 4,2 km/h (1 Bft)
01.07.2015 05:44 16,9 C 15,0 C 81 % 0 lf 1018,1 hPa 0,0 l/m 2 min 0 min 19 W/m 6,3 km/h (2 Bft)
01.07.2015 05:46 16,9 C 15,0 C 80 % 0 lf 1018,2 hPa 0,0 l/m 2 min 0 min 21 W/m 6,3 km/h (2 Bft)
01.07.2015 05:48 16,9 C 15,0 C 80 % 0 lf 1018,2 hPa 0,0 l/m 2 min 0 min 23 W/m 6,3 km/h (2 Bft)
01.07.2015 05:50 16,9 C 15,0 C 81 % 0 lf 1018,1 hPa 0,0 l/m 2 min 0 min 25 W/m 4,2 km/h (1 Bft)
01.07.2015 05:52 16,9 C 15,0 C 80 % 0 lf 1018,2 hPa 0,0 l/m 2 min 0 min 26 W/m 4,2 km/h (1 Bft)
01.07.2015 05:54 16,9 C 15,0 C 80 % 0 lf 1018,1 hPa 0,0 l/m 2 min 0 min 29 W/m 6,3 km/h (2 Bft)
01.07.2015 05:56 16,9 C 15,0 C 81 % 0 lf 1018,2 hPa 0,0 l/m 2 min 0 min 32 W/m 6,3 km/h (2 Bft)
01.07.2015 05:58 17,0 C 15,0 C 81 % 0 lf 1018,1 hPa 0,0 l/m 2 min 0 min 34 W/m 8,4 km/h (2 Bft)
01.07.2015 06:00 17,0 C 15,0 C 80 % 0 lf 1018,1 hPa 0,0 l/m 2 min 0 min 37 W/m 10,5 km/h (2 Bft)
01.07.2015 06:02 17,0 C 15,0 C 80 % 0 lf 1018,2 hPa 0,0 l/m 2 min 0 min 40 W/m 6,3 km/h (2 Bft)
01.07.2015 06:04 17,0 C 15,0 C 80 % 0 lf 1018,1 hPa 0,0 l/m 2 min 0 min 45 W/m 6,3 km/h (2 Bft)
01.07.2015 06:06 17,0 C 15,6 C 80 % 0 lf 1018,2 hPa 0,0 l/m 2 min 0 min 47 W/m 8,4 km/h (2 Bft)
01.07.2015 06:08 17,1 C 15,6 C 80 % 0 lf 1018,1 hPa 0,0 l/m 2 min 0 min 52 W/m 8,4 km/h (2 Bft)
01.07.2015 06:10 17,1 C 15,6 C 80 % 0 lf 1018,2 hPa 0,0 l/m 2 min 0 min 55 W/m 8,4 km/h (2 Bft)
01.07.2015 06:12 17,1 C 15,6 C 80 % 0 lf 1018,2 hPa 0,0 l/m 2 min 0 min 60 W/m 8,4 km/h (2 Bft)
01.07.2015 06:14 17,1 C 15,6 C 80 % 0 lf 1018,2 hPa 0,0 l/m 2 min 0 min 65 W/m 6,3 km/h (2 Bft)
01.07.2015 06:16 17,1 C 15,6 C 80 % 0 lf 1018,2 hPa 0,0 l/m 2 min 0 min 71 W/m 6,3 km/h (2 Bft)
01.07.2015 06:20 17,2 C 15,6 C 80 % 0 lf 1018,2 hPa 0,0 l/m 2 min 0 min 80 W/m 8,4 km/h (2 Bft)
01.07.2015 06:22 17,2 C 15,6 C 80 % 0 lf 1018,2 hPa 0,0 l/m 2 min 0 min 88 W/m 4,2 km/h (1 Bft)
01.07.2015 06:24 17,2 C 15,6 C 80 % 0 lf 1018,3 hPa 0,0 l/m 2 min 0 min 95 W/m 8,4 km/h (2 Bft)
01.07.2015 06:26 17,3 C 16,1 C 80 % 0 lf 1018,3 hPa 0,0 l/m 2 min 0 min 100 W/m 2,1 km/h (1 Bft)
01.07.2015 06:28 17,3 C 16,1 C 80 % 0 lf 1018,3 hPa 0,0 l/m 2 min 0 min 106 W/m 8,4 km/h (2 Bft)
01.07.2015 06:30 17,3 C 16,1 C 80 % 0 lf 1018,3 hPa 0,0 l/m 2 min 0 min 113 W/m 4,2 km/h (1 Bft)
01.07.2015 06:32 17,3 C 16,1 C 80 % 0 lf 1018,2 hPa 0,0 l/m 2 min 0 min 121 W/m 6,3 km/h (2 Bft)
01.07.2015 06:34 17,4 C 16,1 C 80 % 0 lf 1018,2 hPa 0,0 l/m 2 min 0 min 126 W/m 10,5 km/h (2 Bft)
01.07.2015 06:36 17,4 C 16,1 C 80 % 0 lf 1018,3 hPa 0,0 l/m 2 min 0 min 134 W/m 10,5 km/h (2 Bft)
01.07.2015 06:38 17,4 C 16,1 C 80 % 0 lf 1018,2 hPa 0,0 l/m 2 min 0 min 140 W/m 8,4 km/h (2 Bft)
01.07.2015 06:40 17,5 C 16,7 C 80 % 0 lf 1018,2 hPa 0,0 l/m 2 min 0 min 146 W/m 10,5 km/h (2 Bft)
01.07.2015 06:42 17,5 C 16,7 C 80 % 0 lf 1018,2 hPa 0,0 l/m 2 min 0 min 153 W/m 8,4 km/h (2 Bft)
01.07.2015 06:44 17,6 C 16,7 C 80 % 0 lf 1018,2 hPa 0,0 l/m 2 min 0 min 160 W/m 10,5 km/h (2 Bft)
01.07.2015 06:46 17,6 C 16,7 C 80 % 0 lf 1018,2 hPa 0,0 l/m 2 min 0 min 166 W/m 8,4 km/h (2 Bft)
01.07.2015 06:48 17,7 C 16,7 C 80 % 0 lf 1018,1 hPa 0,0 l/m 2 min 0 min 176 W/m 12,6 km/h (3 Bft)
01.07.2015 06:50 17,7 C 16,7 C 80 % 0 lf 1018,2 hPa 0,0 l/m 2 min 0 min 184 W/m 10,5 km/h (2 Bft)
01.07.2015 06:52 17,8 C 16,7 C 80 % 0 lf 1018,2 hPa 0,0 l/m 2 min 0 min 194 W/m 14,6 km/h (3 Bft)
01.07.2015 06:54 17,8 C 17,2 C 80 % 0 lf 1018,1 hPa 0,0 l/m 2 min 0 min 204 W/m 14,6 km/h (3 Bft)
01.07.2015 06:56 17,9 C 17,2 C 80 % 0 lf 1018,2 hPa 0,0 l/m 2 min 0 min 209 W/m 16,7 km/h (3 Bft)
01.07.2015 06:58 17,9 C 17,2 C 80 % 0 lf 1018,2 hPa 0,0 l/m 2 min 0 min 184 W/m 18,8 km/h (3 Bft)
01.07.2015 07:00 18,0 C 17,2 C 80 % 0 lf 1018,2 hPa 0,0 l/m 2 min 0 min 127 W/m 16,7 km/h (3 Bft)
01.07.2015 07:02 18,1 C 17,8 C 79 % 0 lf 1018,1 hPa 0,0 l/m 2 min 0 min 139 W/m 16,7 km/h (3 Bft)
01.07.2015 07:04 18,1 C 17,8 C 79 % 0 lf 1018,1 hPa 0,0 l/m 0 min 0 min 98 W/m 12,6 km/h (3 Bft)
01.07.2015 07:06 18,2 C 17,8 C 78 % 0 lf 1018,2 hPa 0,0 l/m 2 min 0 min 116 W/m 14,6 km/h (3 Bft)
01.07.2015 07:08 18,3 C 17,8 C 78 % 0 lf 1018,2 hPa 0,0 l/m 0 min 0 min 110 W/m 16,7 km/h (3 Bft)
01.07.2015 07:10 18,4 C 17,8 C 78 % 0 lf 1018,2 hPa 0,0 l/m 0 min 0 min 97 W/m 12,6 km/h (3 Bft)
01.07.2015 07:12 18,4 C 17,8 C 77 % 0 lf 1018,2 hPa 0,0 l/m 0 min 0 min 101 W/m 16,7 km/h (3 Bft)
01.07.2015 07:14 18,6 C 17,8 C 77 % 0 lf 1018,2 hPa 0,0 l/m 0 min 0 min 96 W/m 14,6 km/h (3 Bft)
01.07.2015 07:16 18,6 C 17,8 C 77 % 0 lf 1018,2 hPa 0,0 l/m 0 min 0 min 93 W/m 12,6 km/h (3 Bft)
01.07.2015 07:18 18,7 C 17,8 C 77 % 0 lf 1018,2 hPa 0,0 l/m 2 min 0 min 124 W/m 14,6 km/h (3 Bft)
01.07.2015 07:20 18,8 C 17,8 C 76 % 0 lf 1018,2 hPa 0,0 l/m 0 min 0 min 122 W/m 16,7 km/h (3 Bft)
01.07.2015 07:22 18,9 C 17,8 C 76 % 0 lf 1018,2 hPa 0,0 l/m 2 min 0 min 181 W/m 14,6 km/h (3 Bft)
01.07.2015 07:24 18,9 C 17,8 C 76 % 0 lf 1018,1 hPa 0,0 l/m 0 min 0 min 102 W/m 18,8 km/h (3 Bft)
01.07.2015 07:26 19,1 C 17,8 C 76 % 0 lf 1018,2 hPa 0,0 l/m 2 min 0 min 222 W/m 16,7 km/h (3 Bft)
01.07.2015 07:28 19,1 C 17,8 C 76 % 0 lf 1018,1 hPa 0,0 l/m 2 min 0 min 238 W/m 14,6 km/h (3 Bft)
01.07.2015 07:30 19,2 C 17,8 C 75 % 0 lf 1018,1 hPa 0,0 l/m 2 min 0 min 163 W/m 18,8 km/h (3 Bft)
01.07.2015 07:32 19,3 C 18,3 C 75 % 0 lf 1018,1 hPa 0,0 l/m 2 min 0 min 182 W/m 18,8 km/h (3 Bft)
01.07.2015 07:34 19,3 C 18,3 C 75 % 0 lf 1018,1 hPa 0,0 l/m 2 min 0 min 174 W/m 16,7 km/h (3 Bft)
01.07.2015 07:36 19,4 C 18,3 C 75 % 0 lf 1018,1 hPa 0,0 l/m 2 min 0 min 251 W/m 20,9 km/h (4 Bft)
01.07.2015 07:38 19,4 C 18,3 C 75 % 0 lf 1018,1 hPa 0,0 l/m 2 min 0 min 303 W/m 16,7 km/h (3 Bft)
01.07.2015 07:40 19,6 C 18,3 C 75 % 0 lf 1018,1 hPa 0,0 l/m 2 min 0 min 309 W/m 20,9 km/h (4 Bft)
01.07.2015 07:42 19,6 C 18,3 C 74 % 0 lf 1018,1 hPa 0,0 l/m 0 min 0 min 136 W/m 14,6 km/h (3 Bft)
01.07.2015 07:44 19,7 C 18,3 C 74 % 0 lf 1018,1 hPa 0,0 l/m 0 min 0 min 91 W/m 16,7 km/h (3 Bft)
01.07.2015 07:46 19,7 C 18,3 C 74 % 0 lf 1018,1 hPa 0,0 l/m 2 min 0 min 307 W/m 18,8 km/h (3 Bft)
01.07.2015 07:48 19,8 C 18,3 C 73 % 0 lf 1018,0 hPa 0,0 l/m 2 min 0 min 331 W/m 16,7 km/h (3 Bft)
01.07.2015 07:50 19,9 C 18,3 C 73 % 0 lf 1018,0 hPa 0,0 l/m 2 min 0 min 339 W/m 20,9 km/h (4 Bft)
01.07.2015 07:52 19,9 C 18,9 C 73 % 0 lf 1018,0 hPa 0,0 l/m 2 min 0 min 329 W/m 23,0 km/h (4 Bft)
01.07.2015 07:54 20,0 C 18,9 C 73 % 0 lf 1018,0 hPa 0,0 l/m 2 min 0 min 343 W/m 16,7 km/h (3 Bft)
01.07.2015 07:56 20,1 C 18,9 C 73 % 0 lf 1018,0 hPa 0,0 l/m 0 min 0 min 92 W/m 14,6 km/h (3 Bft)
01.07.2015 07:58 20,2 C 18,9 C 72 % 0 lf 1018,0 hPa 0,0 l/m 2 min 0 min 300 W/m 12,6 km/h (3 Bft)
01.07.2015 08:00 20,2 C 18,9 C 72 % 0 lf 1018,0 hPa 0,0 l/m 2 min 0 min 285 W/m 16,7 km/h (3 Bft)
01.07.2015 08:02 20,3 C 18,9 C 72 % 0 lf 1018,0 hPa 0,0 l/m 2 min 0 min 202 W/m 16,7 km/h (3 Bft)
01.07.2015 08:04 20,4 C 18,9 C 72 % 0 lf 1018,0 hPa 0,0 l/m 0 min 0 min 163 W/m 14,6 km/h (3 Bft)
01.07.2015 08:06 20,4 C 18,9 C 72 % 0 lf 1018,0 hPa 0,0 l/m 0 min 0 min 87 W/m 23,0 km/h (4 Bft)
01.07.2015 08:08 20,6 C 18,9 C 71 % 0 lf 1018,0 hPa 0,0 l/m 0 min 0 min 88 W/m 23,0 km/h (4 Bft)
01.07.2015 08:10 20,6 C 18,9 C 71 % 0 lf 1018,0 hPa 0,0 l/m 0 min 0 min 85 W/m 20,9 km/h (4 Bft)
01.07.2015 08:12 20,7 C 18,9 C 71 % 0 lf 1017,9 hPa 0,0 l/m 0 min 0 min 85 W/m 20,9 km/h (4 Bft)
01.07.2015 08:14 20,8 C 18,9 C 70 % 0 lf 1017,9 hPa 0,0 l/m 0 min 0 min 89 W/m 20,9 km/h (4 Bft)
01.07.2015 08:16 20,8 C 18,9 C 71 % 0 lf 1017,9 hPa 0,0 l/m 2 min 0 min 417 W/m 25,1 km/h (4 Bft)
01.07.2015 08:18 20,9 C 19,4 C 71 % 0 lf 1017,9 hPa 0,0 l/m 2 min 0 min 280 W/m 18,8 km/h (3 Bft)
01.07.2015 08:20 20,9 C 19,4 C 70 % 0 lf 1017,9 hPa 0,0 l/m 2 min 0 min 276 W/m 23,0 km/h (4 Bft)
01.07.2015 08:22 21,0 C 19,4 C 70 % 0 lf 1017,9 hPa 0,0 l/m 2 min 0 min 306 W/m 27,2 km/h (4 Bft)
01.07.2015 08:24 21,1 C 19,4 C 70 % 0 lf 1017,9 hPa 0,0 l/m 2 min 0 min 431 W/m 23,0 km/h (4 Bft)
01.07.2015 08:26 21,1 C 19,4 C 70 % 0 lf 1017,9 hPa 0,0 l/m 2 min 0 min 433 W/m 14,6 km/h (3 Bft)
01.07.2015 08:28 21,2 C 19,4 C 70 % 0 lf 1017,9 hPa 0,0 l/m 2 min 0 min 436 W/m 20,9 km/h (4 Bft)
01.07.2015 08:30 21,3 C 19,4 C 70 % 0 lf 1017,8 hPa 0,0 l/m 2 min 0 min 442 W/m 20,9 km/h (4 Bft)
01.07.2015 08:32 21,4 C 20,0 C 70 % 0 lf 1017,8 hPa 0,0 l/m 2 min 0 min 445 W/m 20,9 km/h (4 Bft)
01.07.2015 08:34 21,5 C 20,0 C 70 % 0 lf 1017,9 hPa 0,0 l/m 2 min 0 min 457 W/m 20,9 km/h (4 Bft)
01.07.2015 08:36 21,6 C 20,0 C 69 % 0 lf 1017,9 hPa 0,0 l/m 2 min 0 min 457 W/m 16,7 km/h (3 Bft)
01.07.2015 08:38 21,7 C 20,0 C 69 % 0 lf 1017,9 hPa 0,0 l/m 2 min 0 min 460 W/m 20,9 km/h (4 Bft)
01.07.2015 08:40 21,8 C 20,0 C 69 % 0 lf 1017,9 hPa 0,0 l/m 2 min 0 min 402 W/m 23,0 km/h (4 Bft)
01.07.2015 08:42 22,0 C 20,0 C 68 % 0 lf 1018,0 hPa 0,0 l/m 2 min 0 min 388 W/m 16,7 km/h (3 Bft)
01.07.2015 08:43 22,1 C 20,6 C 68 % 0 lf 1017,9 hPa 0,0 l/m 1 min 0 min 471 W/m 20,9 km/h (4 Bft)
01.07.2015 08:44 22,1 C 20,6 C 68 % 0 lf 1018,0 hPa 0,0 l/m 1 min 0 min 473 W/m 16,7 km/h (3 Bft)
01.07.2015 08:46 22,2 C 20,6 C 68 % 0 lf 1017,9 hPa 0,0 l/m 2 min 0 min 475 W/m 16,7 km/h (3 Bft)
01.07.2015 08:48 22,4 C 20,6 C 67 % 0 lf 1018,0 hPa 0,0 l/m 2 min 0 min 479 W/m 20,9 km/h (4 Bft)
01.07.2015 08:50 22,6 C 20,6 C 67 % 0 lf 1017,9 hPa 0,0 l/m 2 min 0 min 479 W/m 14,6 km/h (3 Bft)
01.07.2015 08:52 22,7 C 20,6 C 67 % 0 lf 1017,9 hPa 0,0 l/m 2 min 0 min 490 W/m 14,6 km/h (3 Bft)
01.07.2015 08:54 22,8 C 21,1 C 66 % 0 lf 1017,9 hPa 0,0 l/m 2 min 0 min 492 W/m 18,8 km/h (3 Bft)
01.07.2015 08:56 23,0 C 21,1 C 66 % 0 lf 1017,9 hPa 0,0 l/m 2 min 0 min 491 W/m 20,9 km/h (4 Bft)
01.07.2015 08:58 23,1 C 21,1 C 65 % 0 lf 1018,0 hPa 0,0 l/m 2 min 0 min 490 W/m 18,8 km/h (3 Bft)
01.07.2015 09:00 23,3 C 21,1 C 65 % 0 lf 1018,0 hPa 0,0 l/m 2 min 0 min 504 W/m 16,7 km/h (3 Bft)
01.07.2015 09:02 23,4 C 21,1 C 64 % 0 lf 1018,0 hPa 0,0 l/m 2 min 0 min 512 W/m 23,0 km/h (4 Bft)
01.07.2015 09:03 23,4 C 21,1 C 64 % 0 lf 1018,0 hPa 0,0 l/m 1 min 0 min 517 W/m 29,3 km/h (5 Bft)
01.07.2015 09:04 23,6 C 21,1 C 64 % 0 lf 1018,0 hPa 0,0 l/m 1 min 0 min 520 W/m 16,7 km/h (3 Bft)
01.07.2015 09:05 23,6 C 21,1 C 64 % 0 lf 1018,0 hPa 0,0 l/m 1 min 0 min 522 W/m 16,7 km/h (3 Bft)
01.07.2015 09:06 23,7 C 21,1 C 64 % 0 lf 1018,0 hPa 0,0 l/m 1 min 0 min 524 W/m 23,0 km/h (4 Bft)
01.07.2015 09:07 23,7 C 21,1 C 64 % 0 lf 1018,0 hPa 0,0 l/m 1 min 0 min 529 W/m 16,7 km/h (3 Bft)
01.07.2015 09:08 23,8 C 21,7 C 64 % 0 lf 1017,9 hPa 0,0 l/m 1 min 0 min 534 W/m 27,2 km/h (4 Bft)
01.07.2015 09:09 23,9 C 21,7 C 64 % 0 lf 1018,0 hPa 0,0 l/m 1 min 0 min 534 W/m 25,1 km/h (4 Bft)
01.07.2015 09:10 23,9 C 21,7 C 63 % 0 lf 1017,9 hPa 0,0 l/m 1 min 0 min 534 W/m 25,1 km/h (4 Bft)
01.07.2015 09:11 24,0 C 21,7 C 63 % 0 lf 1017,9 hPa 0,0 l/m 1 min 0 min 494 W/m 25,1 km/h (4 Bft)
01.07.2015 09:12 24,1 C 21,7 C 62 % 0 lf 1017,9 hPa 0,0 l/m 1 min 0 min 501 W/m 16,7 km/h (3 Bft)
01.07.2015 09:13 24,1 C 21,7 C 62 % 0 lf 1017,9 hPa 0,0 l/m 1 min 0 min 545 W/m 29,3 km/h (5 Bft)
01.07.2015 09:14 24,2 C 22,2 C 62 % 0 lf 1017,9 hPa 0,0 l/m 1 min 0 min 566 W/m 23,0 km/h (4 Bft)
01.07.2015 09:15 24,2 C 22,2 C 62 % 0 lf 1017,9 hPa 0,0 l/m 1 min 0 min 566 W/m 31,4 km/h (5 Bft)
01.07.2015 09:16 24,3 C 22,2 C 62 % 0 lf 1017,9 hPa 0,0 l/m 1 min 0 min 566 W/m 29,3 km/h (5 Bft)
01.07.2015 09:17 24,3 C 22,2 C 61 % 0 lf 1017,9 hPa 0,0 l/m 1 min 0 min 566 W/m 16,7 km/h (3 Bft)
01.07.2015 09:18 24,4 C 22,2 C 62 % 0 lf 1017,9 hPa 0,0 l/m 1 min 0 min 584 W/m 16,7 km/h (3 Bft)
01.07.2015 09:19 24,4 C 22,2 C 61 % 0 lf 1017,8 hPa 0,0 l/m 1 min 0 min 587 W/m 18,8 km/h (3 Bft)
01.07.2015 09:20 24,5 C 22,2 C 61 % 0 lf 1017,8 hPa 0,0 l/m 1 min 0 min 592 W/m 23,0 km/h (4 Bft)
01.07.2015 09:21 24,6 C 22,2 C 61 % 0 lf 1017,9 hPa 0,0 l/m 1 min 0 min 599 W/m 23,0 km/h (4 Bft)
01.07.2015 09:22 24,6 C 22,2 C 61 % 0 lf 1017,9 hPa 0,0 l/m 1 min 0 min 606 W/m 16,7 km/h (3 Bft)
01.07.2015 09:23 24,7 C 22,2 C 61 % 0 lf 1017,8 hPa 0,0 l/m 1 min 0 min 578 W/m 23,0 km/h (4 Bft)
01.07.2015 09:24 24,7 C 22,2 C 61 % 0 lf 1017,8 hPa 0,0 l/m 1 min 0 min 508 W/m 14,6 km/h (3 Bft)
01.07.2015 09:25 24,8 C 22,2 C 61 % 0 lf 1017,8 hPa 0,0 l/m 1 min 0 min 508 W/m 12,6 km/h (3 Bft)
01.07.2015 09:26 24,8 C 22,8 C 61 % 0 lf 1017,8 hPa 0,0 l/m 1 min 0 min 629 W/m 25,1 km/h (4 Bft)
01.07.2015 09:27 24,9 C 22,8 C 61 % 0 lf 1017,9 hPa 0,0 l/m 1 min 0 min 534 W/m 29,3 km/h (5 Bft)
01.07.2015 09:28 24,9 C 22,8 C 60 % 0 lf 1017,9 hPa 0,0 l/m 1 min 0 min 492 W/m 27,2 km/h (4 Bft)
01.07.2015 09:29 25,0 C 22,8 C 60 % 0 lf 1017,8 hPa 0,0 l/m 1 min 0 min 557 W/m 23,0 km/h (4 Bft)
01.07.2015 09:30 25,1 C 22,8 C 60 % 0 lf 1017,8 hPa 0,0 l/m 1 min 0 min 473 W/m 20,9 km/h (4 Bft)
01.07.2015 09:31 25,1 C 22,8 C 60 % 0 lf 1017,8 hPa 0,0 l/m 1 min 0 min 429 W/m 14,6 km/h (3 Bft)
01.07.2015 09:32 25,1 C 22,8 C 60 % 0 lf 1017,8 hPa 0,0 l/m 1 min 0 min 429 W/m 27,2 km/h (4 Bft)
01.07.2015 09:34 25,2 C 22,8 C 59 % 0 lf 1017,9 hPa 0,0 l/m 2 min 0 min 464 W/m 23,0 km/h (4 Bft)
01.07.2015 09:36 25,3 C 22,8 C 60 % 0 lf 1017,9 hPa 0,0 l/m 2 min 0 min 549 W/m 20,9 km/h (4 Bft)
01.07.2015 09:38 25,3 C 22,8 C 60 % 0 lf 1017,9 hPa 0,0 l/m 0 min 0 min 269 W/m 23,0 km/h (4 Bft)
01.07.2015 09:40 25,4 C 22,8 C 59 % 0 lf 1017,9 hPa 0,0 l/m 0 min 0 min 269 W/m 20,9 km/h (4 Bft)
01.07.2015 09:42 25,5 C 22,8 C 59 % 0 lf 1017,9 hPa 0,0 l/m 0 min 0 min 285 W/m 20,9 km/h (4 Bft)
01.07.2015 09:44 25,6 C 23,3 C 60 % 0 lf 1017,9 hPa 0,0 l/m 2 min 0 min 662 W/m 14,6 km/h (3 Bft)
01.07.2015 09:46 25,7 C 23,3 C 59 % 0 lf 1017,9 hPa 0,0 l/m 2 min 0 min 664 W/m 23,0 km/h (4 Bft)
01.07.2015 09:48 25,7 C 23,3 C 59 % 0 lf 1017,9 hPa 0,0 l/m 2 min 0 min 650 W/m 18,8 km/h (3 Bft)
01.07.2015 09:50 25,8 C 23,3 C 60 % 0 lf 1017,9 hPa 0,0 l/m 2 min 0 min 640 W/m 25,1 km/h (4 Bft)
01.07.2015 09:52 25,9 C 23,9 C 59 % 0 lf 1017,8 hPa 0,0 l/m 2 min 0 min 643 W/m 29,3 km/h (5 Bft)
01.07.2015 09:54 26,1 C 23,9 C 58 % 0 lf 1017,9 hPa 0,0 l/m 2 min 0 min 640 W/m 27,2 km/h (4 Bft)
01.07.2015 09:56 26,2 C 23,9 C 58 % 0 lf 1017,9 hPa 0,0 l/m 2 min 0 min 645 W/m 27,2 km/h (4 Bft)
01.07.2015 09:58 26,3 C 24,4 C 58 % 0 lf 1017,9 hPa 0,0 l/m 2 min 0 min 648 W/m 25,1 km/h (4 Bft)
01.07.2015 10:00 26,4 C 24,4 C 57 % 0 lf 1017,9 hPa 0,0 l/m 2 min 0 min 651 W/m 25,1 km/h (4 Bft)
01.07.2015 10:02 26,5 C 26,1 C 58 % 0 lf 1017,9 hPa 0,0 l/m 2 min 0 min 655 W/m 27,2 km/h (4 Bft)
01.07.2015 10:04 26,6 C 27,8 C 56 % 0 lf 1017,9 hPa 0,0 l/m 2 min 0 min 659 W/m 20,9 km/h (4 Bft)
01.07.2015 10:06 26,7 C 28,9 C 57 % 0 lf 1017,8 hPa 0,0 l/m 2 min 0 min 664 W/m 18,8 km/h (3 Bft)
01.07.2015 10:08 26,8 C 30,6 C 56 % 0 lf 1017,8 hPa 0,0 l/m 2 min 0 min 667 W/m 20,9 km/h (4 Bft)
01.07.2015 10:10 26,9 C 31,7 C 57 % 0 lf 1017,8 hPa 0,0 l/m 2 min 0 min 671 W/m 16,7 km/h (3 Bft)
01.07.2015 10:12 27,0 C 31,1 C 56 % 0 lf 1017,8 hPa 0,0 l/m 2 min 0 min 677 W/m 31,4 km/h (5 Bft)
01.07.2015 10:14 27,1 C 31,1 C 55 % 0 lf 1017,9 hPa 0,0 l/m 2 min 0 min 680 W/m 31,4 km/h (5 Bft)
01.07.2015 10:16 27,2 C 31,7 C 55 % 0 lf 1017,8 hPa 0,0 l/m 2 min 0 min 685 W/m 20,9 km/h (4 Bft)
01.07.2015 10:18 27,3 C 31,7 C 56 % 0 lf 1017,9 hPa 0,0 l/m 2 min 0 min 688 W/m 20,9 km/h (4 Bft)
01.07.2015 10:20 27,4 C 31,1 C 55 % 0 lf 1017,8 hPa 0,0 l/m 2 min 0 min 693 W/m 23,0 km/h (4 Bft)
01.07.2015 10:22 27,6 C 30,6 C 55 % 0 lf 1017,8 hPa 0,0 l/m 2 min 0 min 697 W/m 25,1 km/h (4 Bft)
01.07.2015 10:24 27,7 C 30,6 C 54 % 0 lf 1017,8 hPa 0,0 l/m 2 min 0 min 701 W/m 20,9 km/h (4 Bft)
01.07.2015 10:26 27,8 C 30,6 C 55 % 0 lf 1017,9 hPa 0,0 l/m 2 min 0 min 705 W/m 25,1 km/h (4 Bft)
01.07.2015 10:28 27,9 C 29,4 C 54 % 0 lf 1017,8 hPa 0,0 l/m 2 min 0 min 710 W/m 27,2 km/h (4 Bft)
01.07.2015 10:30 28,0 C 30,0 C 54 % 0 lf 1017,8 hPa 0,0 l/m 2 min 0 min 713 W/m 20,9 km/h (4 Bft)
01.07.2015 10:32 28,1 C 30,6 C 53 % 0 lf 1017,7 hPa 0,0 l/m 2 min 0 min 717 W/m 23,0 km/h (4 Bft)
01.07.2015 10:34 28,2 C 30,6 C 54 % 0 lf 1017,8 hPa 0,0 l/m 2 min 0 min 721 W/m 18,8 km/h (3 Bft)
01.07.2015 10:36 28,3 C 30,6 C 54 % 0 lf 1017,7 hPa 0,0 l/m 2 min 0 min 725 W/m 14,6 km/h (3 Bft)
01.07.2015 10:38 28,4 C 30,6 C 53 % 0 lf 1017,7 hPa 0,0 l/m 2 min 0 min 729 W/m 16,7 km/h (3 Bft)
01.07.2015 10:40 28,6 C 31,1 C 55 % 0 lf 1017,7 hPa 0,0 l/m 2 min 0 min 735 W/m 16,7 km/h (3 Bft)
01.07.2015 10:42 28,7 C 30,6 C 53 % 0 lf 1017,7 hPa 0,0 l/m 2 min 0 min 739 W/m 23,0 km/h (4 Bft)
01.07.2015 10:44 28,8 C 30,6 C 51 % 0 lf 1017,7 hPa 0,0 l/m 2 min 0 min 744 W/m 20,9 km/h (4 Bft)
01.07.2015 10:46 28,9 C 31,1 C 51 % 0 lf 1017,7 hPa 0,0 l/m 2 min 0 min 748 W/m 20,9 km/h (4 Bft)
01.07.2015 10:48 28,9 C 30,0 C 51 % 0 lf 1017,7 hPa 0,0 l/m 2 min 0 min 752 W/m 23,0 km/h (4 Bft)
01.07.2015 10:50 29,0 C 28,9 C 52 % 0 lf 1017,7 hPa 0,0 l/m 2 min 0 min 755 W/m 23,0 km/h (4 Bft)
01.07.2015 10:52 29,1 C 28,9 C 52 % 0 lf 1017,7 hPa 0,0 l/m 2 min 0 min 759 W/m 20,9 km/h (4 Bft)
01.07.2015 10:54 29,2 C 28,9 C 51 % 0 lf 1017,7 hPa 0,0 l/m 2 min 0 min 763 W/m 18,8 km/h (3 Bft)
01.07.2015 10:56 29,3 C 29,4 C 52 % 0 lf 1017,6 hPa 0,0 l/m 2 min 0 min 766 W/m 18,8 km/h (3 Bft)
01.07.2015 10:58 29,4 C 29,4 C 52 % 0 lf 1017,7 hPa 0,0 l/m 2 min 0 min 770 W/m 14,6 km/h (3 Bft)
01.07.2015 11:00 29,4 C 30,0 C 50 % 0 lf 1017,7 hPa 0,0 l/m 2 min 0 min 773 W/m 25,1 km/h (4 Bft)
01.07.2015 11:02 29,6 C 30,6 C 50 % 0 lf 1017,7 hPa 0,0 l/m 2 min 0 min 780 W/m 27,2 km/h (4 Bft)
01.07.2015 11:04 29,6 C 31,7 C 49 % 0 lf 1017,7 hPa 0,0 l/m 2 min 0 min 784 W/m 27,2 km/h (4 Bft)
01.07.2015 11:06 29,7 C 32,8 C 50 % 0 lf 1017,6 hPa 0,0 l/m 2 min 0 min 787 W/m 27,2 km/h (4 Bft)
01.07.2015 11:08 29,7 C 32,8 C 51 % 0 lf 1017,6 hPa 0,0 l/m 2 min 0 min 792 W/m 18,8 km/h (3 Bft)
01.07.2015 11:10 29,8 C 32,2 C 51 % 0 lf 1017,6 hPa 0,0 l/m 2 min 0 min 797 W/m 27,2 km/h (4 Bft)
01.07.2015 11:12 29,8 C 32,2 C 49 % 0 lf 1017,6 hPa 0,0 l/m 2 min 0 min 803 W/m 27,2 km/h (4 Bft)
01.07.2015 11:14 29,9 C 32,8 C 49 % 0 lf 1017,6 hPa 0,0 l/m 2 min 0 min 807 W/m 29,3 km/h (5 Bft)
01.07.2015 11:16 29,9 C 33,3 C 49 % 0 lf 1017,6 hPa 0,0 l/m 2 min 0 min 813 W/m 20,9 km/h (4 Bft)
01.07.2015 11:18 30,0 C 32,8 C 49 % 0 lf 1017,5 hPa 0,0 l/m 2 min 0 min 819 W/m 25,1 km/h (4 Bft)
01.07.2015 11:20 30,1 C 32,8 C 49 % 0 lf 1017,5 hPa 0,0 l/m 2 min 0 min 828 W/m 23,0 km/h (4 Bft)
01.07.2015 11:22 30,2 C 32,8 C 48 % 0 lf 1017,5 hPa 0,0 l/m 2 min 0 min 834 W/m 23,0 km/h (4 Bft)
01.07.2015 11:24 30,2 C 32,8 C 48 % 0 lf 1017,5 hPa 0,0 l/m 2 min 0 min 832 W/m 31,4 km/h (5 Bft)
01.07.2015 11:26 30,3 C 32,8 C 48 % 0 lf 1017,5 hPa 0,0 l/m 2 min 0 min 822 W/m 27,2 km/h (4 Bft)
01.07.2015 11:28 30,4 C 32,2 C 48 % 0 lf 1017,4 hPa 0,0 l/m 2 min 0 min 748 W/m 29,3 km/h (5 Bft)
01.07.2015 11:30 30,4 C 32,2 C 47 % 0 lf 1017,4 hPa 0,0 l/m 2 min 0 min 622 W/m 23,0 km/h (4 Bft)
01.07.2015 11:32 30,4 C 32,2 C 47 % 0 lf 1017,4 hPa 0,0 l/m 2 min 0 min 817 W/m 27,2 km/h (4 Bft)
01.07.2015 11:34 30,5 C 32,2 C 47 % 0 lf 1017,4 hPa 0,0 l/m 2 min 0 min 812 W/m 27,2 km/h (4 Bft)
01.07.2015 11:36 30,5 C 31,1 C 47 % 0 lf 1017,4 hPa 0,0 l/m 2 min 0 min 765 W/m 23,0 km/h (4 Bft)
01.07.2015 11:38 30,6 C 30,0 C 46 % 0 lf 1017,4 hPa 0,0 l/m 2 min 0 min 782 W/m 33,5 km/h (5 Bft)
01.07.2015 11:40 30,6 C 30,0 C 47 % 0 lf 1017,4 hPa 0,0 l/m 2 min 0 min 807 W/m 20,9 km/h (4 Bft)
01.07.2015 11:42 30,6 C 30,0 C 47 % 0 lf 1017,4 hPa 0,0 l/m 2 min 0 min 856 W/m 20,9 km/h (4 Bft)
01.07.2015 11:44 30,7 C 31,1 C 48 % 0 lf 1017,4 hPa 0,0 l/m 2 min 0 min 872 W/m 16,7 km/h (3 Bft)
01.07.2015 11:46 30,8 C 32,8 C 48 % 0 lf 1017,3 hPa 0,0 l/m 2 min 0 min 859 W/m 23,0 km/h (4 Bft)
01.07.2015 11:48 30,9 C 33,3 C 46 % 0 lf 1017,3 hPa 0,0 l/m 2 min 0 min 843 W/m 27,2 km/h (4 Bft)
01.07.2015 11:50 30,9 C 33,3 C 45 % 0 lf 1017,4 hPa 0,0 l/m 2 min 0 min 849 W/m 25,1 km/h (4 Bft)
01.07.2015 11:52 31,0 C 33,9 C 46 % 0 lf 1017,3 hPa 0,0 l/m 2 min 0 min 869 W/m 27,2 km/h (4 Bft)
01.07.2015 11:54 31,1 C 34,4 C 48 % 0 lf 1017,4 hPa 0,0 l/m 2 min 0 min 870 W/m 18,8 km/h (3 Bft)
01.07.2015 11:56 31,2 C 34,4 C 47 % 0 lf 1017,4 hPa 0,0 l/m 2 min 0 min 871 W/m 27,2 km/h (4 Bft)
01.07.2015 11:58 31,3 C 34,4 C 46 % 0 lf 1017,3 hPa 0,0 l/m 2 min 0 min 875 W/m 20,9 km/h (4 Bft)
01.07.2015 12:00 31,3 C 33,9 C 45 % 0 lf 1017,2 hPa 0,0 l/m 2 min 0 min 878 W/m 23,0 km/h (4 Bft)
01.07.2015 12:02 31,4 C 34,4 C 46 % 0 lf 1017,3 hPa 0,0 l/m 2 min 0 min 884 W/m 23,0 km/h (4 Bft)
01.07.2015 12:05 31,6 C 35,6 C 45 % 0 lf 1017,2 hPa 0,0 l/m 2 min 0 min 894 W/m 29,3 km/h (5 Bft)
01.07.2015 12:06 31,6 C 35,6 C 46 % 0 lf 1017,2 hPa 0,0 l/m 1 min 0 min 899 W/m 25,1 km/h (4 Bft)
01.07.2015 12:08 31,7 C 35,6 C 44 % 0 lf 1017,2 hPa 0,0 l/m 2 min 0 min 903 W/m 25,1 km/h (4 Bft)
01.07.2015 12:10 31,7 C 35,0 C 45 % 0 lf 1017,1 hPa 0,0 l/m 2 min 0 min 912 W/m 27,2 km/h (4 Bft)
01.07.2015 12:12 31,8 C 35,6 C 44 % 0 lf 1017,2 hPa 0,0 l/m 2 min 0 min 919 W/m 23,0 km/h (4 Bft)
01.07.2015 12:14 31,8 C 35,6 C 44 % 0 lf 1017,0 hPa 0,0 l/m 2 min 0 min 926 W/m 23,0 km/h (4 Bft)
01.07.2015 12:16 31,9 C 36,1 C 44 % 0 lf 1017,1 hPa 0,0 l/m 2 min 0 min 919 W/m 23,0 km/h (4 Bft)
01.07.2015 12:18 32,0 C 35,6 C 43 % 0 lf 1017,0 hPa 0,0 l/m 2 min 0 min 938 W/m 18,8 km/h (3 Bft)
01.07.2015 12:20 32,1 C 36,1 C 42 % 0 lf 1017,1 hPa 0,0 l/m 2 min 0 min 948 W/m 23,0 km/h (4 Bft)
01.07.2015 12:22 32,2 C 35,6 C 43 % 0 lf 1017,0 hPa 0,0 l/m 2 min 0 min 858 W/m 18,8 km/h (3 Bft)
01.07.2015 12:24 32,3 C 35,0 C 43 % 0 lf 1017,1 hPa 0,0 l/m 0 min 0 min 253 W/m 33,5 km/h (5 Bft)
01.07.2015 12:26 32,3 C 33,9 C 41 % 0 lf 1017,0 hPa 0,0 l/m 0 min 0 min 366 W/m 29,3 km/h (5 Bft)
01.07.2015 12:28 32,3 C 32,8 C 41 % 0 lf 1017,0 hPa 0,0 l/m 2 min 0 min 484 W/m 18,8 km/h (3 Bft)
01.07.2015 12:30 32,3 C 33,3 C 41 % 0 lf 1017,0 hPa 0,0 l/m 2 min 0 min 844 W/m 29,3 km/h (5 Bft)
01.07.2015 12:32 32,3 C 33,3 C 42 % 0 lf 1017,1 hPa 0,0 l/m 2 min 0 min 927 W/m 29,3 km/h (5 Bft)
01.07.2015 12:34 32,3 C 33,3 C 43 % 0 lf 1017,0 hPa 0,0 l/m 2 min 0 min 920 W/m 27,2 km/h (4 Bft)
01.07.2015 12:36 32,3 C 33,3 C 43 % 0 lf 1017,0 hPa 0,0 l/m 2 min 0 min 920 W/m 23,0 km/h (4 Bft)
01.07.2015 12:38 32,4 C 33,3 C 42 % 0 lf 1017,0 hPa 0,0 l/m 2 min 0 min 785 W/m 27,2 km/h (4 Bft)
01.07.2015 12:40 32,4 C 33,3 C 42 % 0 lf 1017,0 hPa 0,0 l/m 2 min 0 min 849 W/m 20,9 km/h (4 Bft)
01.07.2015 12:42 32,4 C 33,3 C 43 % 0 lf 1016,9 hPa 0,0 l/m 2 min 0 min 948 W/m 29,3 km/h (5 Bft)
01.07.2015 12:44 32,6 C 33,9 C 42 % 0 lf 1016,9 hPa 0,0 l/m 2 min 0 min 947 W/m 27,2 km/h (4 Bft)
01.07.2015 12:46 32,6 C 33,3 C 42 % 0 lf 1016,9 hPa 0,0 l/m 2 min 0 min 914 W/m 23,0 km/h (4 Bft)
01.07.2015 12:48 32,6 C 33,3 C 42 % 0 lf 1016,9 hPa 0,0 l/m 2 min 0 min 890 W/m 39,7 km/h (6 Bft)
01.07.2015 12:50 32,7 C 33,3 C 42 % 0 lf 1016,9 hPa 0,0 l/m 2 min 0 min 953 W/m 29,3 km/h (5 Bft)
01.07.2015 12:52 32,8 C 33,3 C 42 % 0 lf 1016,9 hPa 0,0 l/m 2 min 0 min 954 W/m 27,2 km/h (4 Bft)
01.07.2015 12:54 32,8 C 32,8 C 42 % 0 lf 1016,9 hPa 0,0 l/m 2 min 0 min 924 W/m 29,3 km/h (5 Bft)
01.07.2015 12:56 32,9 C 32,8 C 42 % 0 lf 1016,9 hPa 0,0 l/m 2 min 0 min 919 W/m 27,2 km/h (4 Bft)
01.07.2015 12:58 33,0 C 31,7 C 41 % 0 lf 1017,0 hPa 0,0 l/m 2 min 0 min 922 W/m 33,5 km/h (5 Bft)
01.07.2015 13:00 33,1 C 31,7 C 43 % 0 lf 1016,8 hPa 0,0 l/m 2 min 0 min 900 W/m 25,1 km/h (4 Bft)
01.07.2015 13:02 33,1 C 31,7 C 42 % 0 lf 1016,9 hPa 0,0 l/m 2 min 0 min 902 W/m 23,0 km/h (4 Bft)
01.07.2015 13:04 33,2 C 31,7 C 41 % 0 lf 1016,9 hPa 0,0 l/m 2 min 0 min 880 W/m 31,4 km/h (5 Bft)
01.07.2015 13:06 33,3 C 32,2 C 40 % 0 lf 1016,9 hPa 0,0 l/m 2 min 0 min 925 W/m 20,9 km/h (4 Bft)
01.07.2015 13:08 33,3 C 31,7 C 40 % 0 lf 1016,9 hPa 0,0 l/m 2 min 0 min 872 W/m 29,3 km/h (5 Bft)
01.07.2015 13:10 33,3 C 31,7 C 41 % 0 lf 1016,9 hPa 0,0 l/m 2 min 0 min 910 W/m 35,6 km/h (5 Bft)
01.07.2015 13:12 33,3 C 32,2 C 40 % 0 lf 1016,8 hPa 0,0 l/m 2 min 0 min 850 W/m 27,2 km/h (4 Bft)
01.07.2015 13:14 33,3 C 31,7 C 41 % 0 lf 1016,8 hPa 0,0 l/m 2 min 0 min 831 W/m 31,4 km/h (5 Bft)
01.07.2015 13:16 33,3 C 31,7 C 40 % 0 lf 1016,7 hPa 0,0 l/m 2 min 0 min 739 W/m 27,2 km/h (4 Bft)
01.07.2015 13:18 33,3 C 31,7 C 40 % 0 lf 1016,7 hPa 0,0 l/m 2 min 0 min 646 W/m 25,1 km/h (4 Bft)
01.07.2015 13:20 33,2 C 31,1 C 41 % 0 lf 1016,7 hPa 0,0 l/m 2 min 0 min 655 W/m 31,4 km/h (5 Bft)
01.07.2015 13:22 33,2 C 31,1 C 41 % 0 lf 1016,7 hPa 0,0 l/m 2 min 0 min 589 W/m 27,2 km/h (4 Bft)
01.07.2015 13:24 33,1 C 31,1 C 41 % 0 lf 1016,6 hPa 0,0 l/m 2 min 0 min 655 W/m 23,0 km/h (4 Bft)
01.07.2015 13:26 33,1 C 31,1 C 41 % 0 lf 1016,5 hPa 0,0 l/m 2 min 0 min 732 W/m 25,1 km/h (4 Bft)
01.07.2015 13:28 33,1 C 31,1 C 41 % 0 lf 1016,6 hPa 0,0 l/m 2 min 0 min 830 W/m 25,1 km/h (4 Bft)
01.07.2015 13:30 33,0 C 31,1 C 42 % 0 lf 1016,5 hPa 0,0 l/m 2 min 0 min 821 W/m 31,4 km/h (5 Bft)
01.07.2015 13:32 33,0 C 31,1 C 42 % 0 lf 1016,4 hPa 0,0 l/m 2 min 0 min 804 W/m 23,0 km/h (4 Bft)
01.07.2015 13:34 33,0 C 31,1 C 41 % 0 lf 1016,4 hPa 0,0 l/m 2 min 0 min 870 W/m 31,4 km/h (5 Bft)
01.07.2015 13:36 33,0 C 31,1 C 40 % 0 lf 1016,4 hPa 0,0 l/m 2 min 0 min 820 W/m 23,0 km/h (4 Bft)
01.07.2015 13:38 33,0 C 31,1 C 41 % 0 lf 1016,5 hPa 0,0 l/m 2 min 0 min 760 W/m 23,0 km/h (4 Bft)
01.07.2015 13:40 33,0 C 31,1 C 41 % 0 lf 1016,4 hPa 0,0 l/m 2 min 0 min 829 W/m 27,2 km/h (4 Bft)
01.07.2015 13:42 33,1 C 31,1 C 41 % 0 lf 1016,5 hPa 0,0 l/m 2 min 0 min 845 W/m 29,3 km/h (5 Bft)
01.07.2015 13:44 33,1 C 31,1 C 42 % 0 lf 1016,4 hPa 0,0 l/m 2 min 0 min 816 W/m 27,2 km/h (4 Bft)
01.07.2015 13:46 33,2 C 31,1 C 41 % 0 lf 1016,4 hPa 0,0 l/m 2 min 0 min 825 W/m 35,6 km/h (5 Bft)
01.07.2015 13:48 33,2 C 31,1 C 41 % 0 lf 1016,4 hPa 0,0 l/m 2 min 0 min 827 W/m 18,8 km/h (3 Bft)
01.07.2015 13:50 33,3 C 31,7 C 41 % 0 lf 1016,4 hPa 0,0 l/m 2 min 0 min 884 W/m 33,5 km/h (5 Bft)
01.07.2015 13:52 33,3 C 31,7 C 41 % 0 lf 1016,4 hPa 0,0 l/m 2 min 0 min 886 W/m 35,6 km/h (5 Bft)
01.07.2015 13:54 33,4 C 31,7 C 40 % 0 lf 1016,4 hPa 0,0 l/m 2 min 0 min 900 W/m 27,2 km/h (4 Bft)
01.07.2015 13:56 33,4 C 31,7 C 40 % 0 lf 1016,4 hPa 0,0 l/m 2 min 0 min 908 W/m 35,6 km/h (5 Bft)
01.07.2015 13:58 33,5 C 31,7 C 41 % 0 lf 1016,3 hPa 0,0 l/m 2 min 0 min 916 W/m 25,1 km/h (4 Bft)
01.07.2015 14:00 33,6 C 31,7 C 40 % 0 lf 1016,3 hPa 0,0 l/m 2 min 0 min 910 W/m 31,4 km/h (5 Bft)
01.07.2015 14:02 33,6 C 31,7 C 40 % 0 lf 1016,3 hPa 0,0 l/m 2 min 0 min 920 W/m 27,2 km/h (4 Bft)
01.07.2015 14:04 33,7 C 31,7 C 40 % 0 lf 1016,3 hPa 0,0 l/m 2 min 0 min 906 W/m 20,9 km/h (4 Bft)
01.07.2015 14:06 33,8 C 31,7 C 41 % 0 lf 1016,3 hPa 0,0 l/m 2 min 0 min 902 W/m 29,3 km/h (5 Bft)
01.07.2015 14:08 33,8 C 31,7 C 40 % 0 lf 1016,3 hPa 0,0 l/m 2 min 0 min 916 W/m 23,0 km/h (4 Bft)
01.07.2015 14:10 33,8 C 31,7 C 40 % 0 lf 1016,3 hPa 0,0 l/m 2 min 0 min 916 W/m 31,4 km/h (5 Bft)
01.07.2015 14:12 33,9 C 31,7 C 39 % 0 lf 1016,3 hPa 0,0 l/m 2 min 0 min 911 W/m 31,4 km/h (5 Bft)
01.07.2015 14:14 34,0 C 32,2 C 40 % 0 lf 1016,4 hPa 0,0 l/m 2 min 0 min 917 W/m 25,1 km/h (4 Bft)
01.07.2015 14:16 34,1 C 33,3 C 39 % 0 lf 1016,3 hPa 0,0 l/m 2 min 0 min 914 W/m 23,0 km/h (4 Bft)
01.07.2015 14:18 34,1 C 32,8 C 39 % 0 lf 1016,3 hPa 0,0 l/m 2 min 0 min 875 W/m 25,1 km/h (4 Bft)
01.07.2015 14:20 34,1 C 32,8 C 39 % 0 lf 1016,2 hPa 0,0 l/m 2 min 0 min 860 W/m 23,0 km/h (4 Bft)
01.07.2015 14:22 34,2 C 32,2 C 39 % 0 lf 1016,2 hPa 0,0 l/m 2 min 0 min 872 W/m 25,1 km/h (4 Bft)
01.07.2015 14:24 34,2 C 32,2 C 40 % 0 lf 1016,1 hPa 0,0 l/m 2 min 0 min 871 W/m 23,0 km/h (4 Bft)
01.07.2015 14:26 34,2 C 31,7 C 39 % 0 lf 1016,1 hPa 0,0 l/m 2 min 0 min 884 W/m 23,0 km/h (4 Bft)
01.07.2015 14:28 34,2 C 31,7 C 39 % 0 lf 1016,1 hPa 0,0 l/m 2 min 0 min 887 W/m 27,2 km/h (4 Bft)
01.07.2015 14:30 34,2 C 31,7 C 38 % 0 lf 1016,0 hPa 0,0 l/m 2 min 0 min 872 W/m 20,9 km/h (4 Bft)
01.07.2015 14:32 34,2 C 32,2 C 40 % 0 lf 1016,0 hPa 0,0 l/m 2 min 0 min 871 W/m 23,0 km/h (4 Bft)
01.07.2015 14:34 34,2 C 32,2 C 39 % 0 lf 1016,0 hPa 0,0 l/m 2 min 0 min 890 W/m 18,8 km/h (3 Bft)
01.07.2015 14:36 34,2 C 32,2 C 41 % 0 lf 1016,0 hPa 0,0 l/m 2 min 0 min 882 W/m 25,1 km/h (4 Bft)
01.07.2015 14:38 34,3 C 32,2 C 40 % 0 lf 1016,0 hPa 0,0 l/m 2 min 0 min 860 W/m 23,0 km/h (4 Bft)
01.07.2015 14:40 34,4 C 32,8 C 38 % 0 lf 1016,0 hPa 0,0 l/m 2 min 0 min 870 W/m 16,7 km/h (3 Bft)
01.07.2015 14:42 34,5 C 32,2 C 38 % 0 lf 1016,0 hPa 0,0 l/m 2 min 0 min 883 W/m 29,3 km/h (5 Bft)
01.07.2015 14:44 34,5 C 32,2 C 38 % 0 lf 1016,0 hPa 0,0 l/m 2 min 0 min 872 W/m 33,5 km/h (5 Bft)
01.07.2015 14:46 34,6 C 32,2 C 37 % 0 lf 1015,9 hPa 0,0 l/m 2 min 0 min 862 W/m 27,2 km/h (4 Bft)
01.07.2015 14:48 34,6 C 32,2 C 37 % 0 lf 1015,9 hPa 0,0 l/m 2 min 0 min 884 W/m 31,4 km/h (5 Bft)
01.07.2015 14:50 34,6 C 32,2 C 39 % 0 lf 1015,9 hPa 0,0 l/m 2 min 0 min 878 W/m 16,7 km/h (3 Bft)
01.07.2015 14:52 34,7 C 32,2 C 37 % 0 lf 1015,9 hPa 0,0 l/m 2 min 0 min 853 W/m 23,0 km/h (4 Bft)
01.07.2015 14:54 34,7 C 32,2 C 38 % 0 lf 1015,8 hPa 0,0 l/m 2 min 0 min 867 W/m 29,3 km/h (5 Bft)
01.07.2015 14:56 34,7 C 32,2 C 38 % 0 lf 1015,7 hPa 0,0 l/m 2 min 0 min 869 W/m 25,1 km/h (4 Bft)
01.07.2015 14:58 34,8 C 32,2 C 37 % 0 lf 1015,8 hPa 0,0 l/m 2 min 0 min 867 W/m 33,5 km/h (5 Bft)
01.07.2015 15:00 34,8 C 32,2 C 36 % 0 lf 1015,8 hPa 0,0 l/m 2 min 0 min 851 W/m 25,1 km/h (4 Bft)
01.07.2015 15:02 34,8 C 32,2 C 37 % 0 lf 1015,8 hPa 0,0 l/m 2 min 0 min 871 W/m 25,1 km/h (4 Bft)
01.07.2015 15:04 34,8 C 32,2 C 38 % 0 lf 1015,8 hPa 0,0 l/m 2 min 0 min 872 W/m 29,3 km/h (5 Bft)
01.07.2015 15:06 34,8 C 32,2 C 37 % 0 lf 1015,8 hPa 0,0 l/m 2 min 0 min 858 W/m 27,2 km/h (4 Bft)
01.07.2015 15:08 34,7 C 32,2 C 38 % 0 lf 1015,8 hPa 0,0 l/m 2 min 0 min 863 W/m 18,8 km/h (3 Bft)
01.07.2015 15:10 34,8 C 32,8 C 37 % 0 lf 1015,8 hPa 0,0 l/m 2 min 0 min 857 W/m 29,3 km/h (5 Bft)
01.07.2015 15:12 34,8 C 32,8 C 37 % 0 lf 1015,7 hPa 0,0 l/m 2 min 0 min 852 W/m 25,1 km/h (4 Bft)
01.07.2015 15:14 34,8 C 32,8 C 36 % 0 lf 1015,8 hPa 0,0 l/m 2 min 0 min 844 W/m 27,2 km/h (4 Bft)
01.07.2015 15:16 34,8 C 32,2 C 36 % 0 lf 1015,8 hPa 0,0 l/m 2 min 0 min 843 W/m 35,6 km/h (5 Bft)
01.07.2015 15:18 34,8 C 32,2 C 36 % 0 lf 1015,8 hPa 0,0 l/m 2 min 0 min 842 W/m 33,5 km/h (5 Bft)
01.07.2015 15:20 34,7 C 32,2 C 37 % 0 lf 1015,8 hPa 0,0 l/m 2 min 0 min 843 W/m 29,3 km/h (5 Bft)
01.07.2015 15:22 34,7 C 32,8 C 37 % 0 lf 1015,8 hPa 0,0 l/m 2 min 0 min 839 W/m 23,0 km/h (4 Bft)
01.07.2015 15:24 34,7 C 32,8 C 37 % 0 lf 1015,8 hPa 0,0 l/m 2 min 0 min 834 W/m 27,2 km/h (4 Bft)
01.07.2015 15:26 34,7 C 32,8 C 36 % 0 lf 1015,7 hPa 0,0 l/m 2 min 0 min 830 W/m 25,1 km/h (4 Bft)
01.07.2015 15:28 34,8 C 32,8 C 37 % 0 lf 1015,8 hPa 0,0 l/m 2 min 0 min 823 W/m 27,2 km/h (4 Bft)
01.07.2015 15:30 34,8 C 32,8 C 38 % 0 lf 1015,7 hPa 0,0 l/m 2 min 0 min 821 W/m 18,8 km/h (3 Bft)
01.07.2015 15:32 34,8 C 32,8 C 39 % 0 lf 1015,7 hPa 0,0 l/m 2 min 0 min 816 W/m 23,0 km/h (4 Bft)
01.07.2015 15:34 34,9 C 32,8 C 37 % 0 lf 1015,7 hPa 0,0 l/m 2 min 0 min 821 W/m 33,5 km/h (5 Bft)
01.07.2015 15:36 34,8 C 32,8 C 38 % 0 lf 1015,7 hPa 0,0 l/m 2 min 0 min 818 W/m 25,1 km/h (4 Bft)
01.07.2015 15:38 34,9 C 33,3 C 39 % 0 lf 1015,7 hPa 0,0 l/m 2 min 0 min 805 W/m 25,1 km/h (4 Bft)
01.07.2015 15:40 35,0 C 33,3 C 38 % 0 lf 1015,7 hPa 0,0 l/m 2 min 0 min 818 W/m 20,9 km/h (4 Bft)
01.07.2015 15:42 35,1 C 32,8 C 38 % 0 lf 1015,7 hPa 0,0 l/m 2 min 0 min 809 W/m 20,9 km/h (4 Bft)
01.07.2015 15:44 35,1 C 32,8 C 37 % 0 lf 1015,7 hPa 0,0 l/m 2 min 0 min 794 W/m 25,1 km/h (4 Bft)
01.07.2015 15:46 35,1 C 32,8 C 38 % 0 lf 1015,8 hPa 0,0 l/m 2 min 0 min 784 W/m 33,5 km/h (5 Bft)
01.07.2015 15:48 35,1 C 33,3 C 37 % 0 lf 1015,8 hPa 0,0 l/m 2 min 0 min 798 W/m 27,2 km/h (4 Bft)
01.07.2015 15:50 34,9 C 34,4 C 37 % 0 lf 1015,7 hPa 0,0 l/m 2 min 0 min 792 W/m 20,9 km/h (4 Bft)
01.07.2015 15:52 34,9 C 35,6 C 39 % 0 lf 1015,7 hPa 0,0 l/m 2 min 0 min 792 W/m 29,3 km/h (5 Bft)
01.07.2015 15:54 34,9 C 36,7 C 40 % 0 lf 1015,7 hPa 0,0 l/m 2 min 0 min 775 W/m 25,1 km/h (4 Bft)
01.07.2015 15:56 34,9 C 37,2 C 37 % 0 lf 1015,7 hPa 0,0 l/m 2 min 0 min 756 W/m 23,0 km/h (4 Bft)
01.07.2015 15:58 34,9 C 37,8 C 38 % 0 lf 1015,8 hPa 0,0 l/m 2 min 0 min 774 W/m 29,3 km/h (5 Bft)
01.07.2015 16:00 34,9 C 37,2 C 38 % 0 lf 1015,7 hPa 0,0 l/m 2 min 0 min 764 W/m 23,0 km/h (4 Bft)
01.07.2015 16:02 35,0 C 36,7 C 38 % 0 lf 1015,7 hPa 0,0 l/m 2 min 0 min 760 W/m 31,4 km/h (5 Bft)
01.07.2015 16:04 35,0 C 36,1 C 38 % 0 lf 1015,7 hPa 0,0 l/m 2 min 0 min 746 W/m 23,0 km/h (4 Bft)
01.07.2015 16:06 35,0 C 35,6 C 37 % 0 lf 1015,5 hPa 0,0 l/m 2 min 0 min 732 W/m 29,3 km/h (5 Bft)
01.07.2015 16:08 35,0 C 35,0 C 38 % 0 lf 1015,6 hPa 0,0 l/m 2 min 0 min 732 W/m 23,0 km/h (4 Bft)
01.07.2015 16:10 35,1 C 35,0 C 39 % 0 lf 1015,5 hPa 0,0 l/m 2 min 0 min 754 W/m 23,0 km/h (4 Bft)
01.07.2015 16:12 35,1 C 34,4 C 39 % 0 lf 1015,6 hPa 0,0 l/m 2 min 0 min 754 W/m 31,4 km/h (5 Bft)
01.07.2015 16:14 35,1 C 33,9 C 38 % 0 lf 1015,6 hPa 0,0 l/m 2 min 0 min 744 W/m 31,4 km/h (5 Bft)
01.07.2015 16:16 35,2 C 33,9 C 39 % 0 lf 1015,5 hPa 0,0 l/m 2 min 0 min 715 W/m 31,4 km/h (5 Bft)
01.07.2015 16:18 35,2 C 33,9 C 38 % 0 lf 1015,5 hPa 0,0 l/m 2 min 0 min 712 W/m 23,0 km/h (4 Bft)
01.07.2015 16:20 35,2 C 33,9 C 38 % 0 lf 1015,4 hPa 0,0 l/m 2 min 0 min 725 W/m 27,2 km/h (4 Bft)
01.07.2015 16:22 35,2 C 33,9 C 37 % 0 lf 1015,5 hPa 0,0 l/m 2 min 0 min 709 W/m 25,1 km/h (4 Bft)
01.07.2015 16:24 35,2 C 33,3 C 37 % 0 lf 1015,5 hPa 0,0 l/m 2 min 0 min 709 W/m 29,3 km/h (5 Bft)
01.07.2015 16:26 35,2 C 33,3 C 38 % 0 lf 1015,4 hPa 0,0 l/m 2 min 0 min 700 W/m 20,9 km/h (4 Bft)
01.07.2015 16:28 35,2 C 33,3 C 39 % 0 lf 1015,5 hPa 0,0 l/m 2 min 0 min 707 W/m 20,9 km/h (4 Bft)
01.07.2015 16:30 35,2 C 33,3 C 39 % 0 lf 1015,4 hPa 0,0 l/m 2 min 0 min 704 W/m 25,1 km/h (4 Bft)
01.07.2015 16:32 35,2 C 33,3 C 38 % 0 lf 1015,4 hPa 0,0 l/m 2 min 0 min 691 W/m 18,8 km/h (3 Bft)
01.07.2015 16:34 35,3 C 33,3 C 39 % 0 lf 1015,4 hPa 0,0 l/m 2 min 0 min 691 W/m 25,1 km/h (4 Bft)
01.07.2015 16:36 35,3 C 32,8 C 38 % 0 lf 1015,4 hPa 0,0 l/m 2 min 0 min 702 W/m 27,2 km/h (4 Bft)
01.07.2015 16:38 35,3 C 32,8 C 38 % 0 lf 1015,4 hPa 0,0 l/m 2 min 0 min 705 W/m 27,2 km/h (4 Bft)
01.07.2015 16:40 35,3 C 32,8 C 39 % 0 lf 1015,3 hPa 0,0 l/m 2 min 0 min 691 W/m 18,8 km/h (3 Bft)
01.07.2015 16:42 35,4 C 32,8 C 38 % 0 lf 1015,4 hPa 0,0 l/m 2 min 0 min 674 W/m 18,8 km/h (3 Bft)
01.07.2015 16:44 35,4 C 32,8 C 38 % 0 lf 1015,3 hPa 0,0 l/m 2 min 0 min 672 W/m 27,2 km/h (4 Bft)
01.07.2015 16:46 35,4 C 32,8 C 38 % 0 lf 1015,3 hPa 0,0 l/m 2 min 0 min 674 W/m 16,7 km/h (3 Bft)
01.07.2015 16:48 35,4 C 32,8 C 39 % 0 lf 1015,3 hPa 0,0 l/m 2 min 0 min 669 W/m 14,6 km/h (3 Bft)
01.07.2015 16:50 35,5 C 32,8 C 39 % 0 lf 1015,3 hPa 0,0 l/m 2 min 0 min 670 W/m 23,0 km/h (4 Bft)
01.07.2015 16:52 35,5 C 32,8 C 39 % 0 lf 1015,4 hPa 0,0 l/m 2 min 0 min 669 W/m 20,9 km/h (4 Bft)
01.07.2015 16:54 35,6 C 32,8 C 39 % 0 lf 1015,4 hPa 0,0 l/m 2 min 0 min 663 W/m 25,1 km/h (4 Bft)
01.07.2015 16:56 35,6 C 32,2 C 39 % 0 lf 1015,3 hPa 0,0 l/m 2 min 0 min 658 W/m 23,0 km/h (4 Bft)
01.07.2015 16:58 35,6 C 32,2 C 38 % 0 lf 1015,3 hPa 0,0 l/m 2 min 0 min 641 W/m 20,9 km/h (4 Bft)
01.07.2015 17:00 35,6 C 32,2 C 38 % 0 lf 1015,4 hPa 0,0 l/m 2 min 0 min 648 W/m 18,8 km/h (3 Bft)
01.07.2015 17:02 35,6 C 32,2 C 39 % 0 lf 1015,3 hPa 0,0 l/m 2 min 0 min 651 W/m 27,2 km/h (4 Bft)
01.07.2015 17:04 35,6 C 32,2 C 39 % 0 lf 1015,2 hPa 0,0 l/m 2 min 0 min 651 W/m 23,0 km/h (4 Bft)
01.07.2015 17:06 35,6 C 32,2 C 38 % 0 lf 1015,3 hPa 0,0 l/m 2 min 0 min 641 W/m 18,8 km/h (3 Bft)
01.07.2015 17:08 35,5 C 32,2 C 39 % 0 lf 1015,3 hPa 0,0 l/m 2 min 0 min 643 W/m 23,0 km/h (4 Bft)
01.07.2015 17:10 35,5 C 32,2 C 38 % 0 lf 1015,3 hPa 0,0 l/m 2 min 0 min 632 W/m 29,3 km/h (5 Bft)
01.07.2015 17:12 35,4 C 32,2 C 39 % 0 lf 1015,2 hPa 0,0 l/m 2 min 0 min 626 W/m 27,2 km/h (4 Bft)
01.07.2015 17:14 35,4 C 32,2 C 38 % 0 lf 1015,2 hPa 0,0 l/m 2 min 0 min 616 W/m 23,0 km/h (4 Bft)
01.07.2015 17:16 35,4 C 32,2 C 38 % 0 lf 1015,2 hPa 0,0 l/m 2 min 0 min 620 W/m 25,1 km/h (4 Bft)
01.07.2015 17:18 35,4 C 32,2 C 38 % 0 lf 1015,2 hPa 0,0 l/m 2 min 0 min 620 W/m 25,1 km/h (4 Bft)
01.07.2015 17:20 35,3 C 32,2 C 38 % 0 lf 1015,1 hPa 0,0 l/m 2 min 0 min 610 W/m 20,9 km/h (4 Bft)
01.07.2015 17:22 35,3 C 32,2 C 38 % 0 lf 1015,1 hPa 0,0 l/m 2 min 0 min 600 W/m 18,8 km/h (3 Bft)
01.07.2015 17:24 35,2 C 32,2 C 39 % 0 lf 1015,2 hPa 0,0 l/m 2 min 0 min 599 W/m 20,9 km/h (4 Bft)
01.07.2015 17:26 35,2 C 31,7 C 38 % 0 lf 1015,2 hPa 0,0 l/m 2 min 0 min 594 W/m 23,0 km/h (4 Bft)
01.07.2015 17:28 35,2 C 32,2 C 38 % 0 lf 1015,2 hPa 0,0 l/m 2 min 0 min 585 W/m 20,9 km/h (4 Bft)
01.07.2015 17:30 35,2 C 32,2 C 39 % 0 lf 1015,2 hPa 0,0 l/m 2 min 0 min 571 W/m 20,9 km/h (4 Bft)
01.07.2015 17:32 35,2 C 31,7 C 39 % 0 lf 1015,2 hPa 0,0 l/m 2 min 0 min 562 W/m 29,3 km/h (5 Bft)
01.07.2015 17:34 35,2 C 31,7 C 39 % 0 lf 1015,2 hPa 0,0 l/m 2 min 0 min 556 W/m 18,8 km/h (3 Bft)
01.07.2015 17:36 35,2 C 31,7 C 39 % 0 lf 1015,1 hPa 0,0 l/m 2 min 0 min 541 W/m 25,1 km/h (4 Bft)
01.07.2015 17:38 35,2 C 31,7 C 39 % 0 lf 1015,1 hPa 0,0 l/m 2 min 0 min 553 W/m 20,9 km/h (4 Bft)
01.07.2015 17:40 35,2 C 31,1 C 39 % 0 lf 1015,0 hPa 0,0 l/m 2 min 0 min 553 W/m 20,9 km/h (4 Bft)
01.07.2015 17:42 35,2 C 31,7 C 39 % 0 lf 1015,1 hPa 0,0 l/m 2 min 0 min 542 W/m 27,2 km/h (4 Bft)
01.07.2015 17:44 35,1 C 31,7 C 39 % 0 lf 1015,1 hPa 0,0 l/m 2 min 0 min 537 W/m 33,5 km/h (5 Bft)
01.07.2015 17:46 35,1 C 31,7 C 39 % 0 lf 1015,0 hPa 0,0 l/m 2 min 0 min 528 W/m 33,5 km/h (5 Bft)
01.07.2015 17:48 35,0 C 31,7 C 39 % 0 lf 1015,0 hPa 0,0 l/m 2 min 0 min 521 W/m 33,5 km/h (5 Bft)
01.07.2015 17:50 34,9 C 30,0 C 39 % 0 lf 1015,0 hPa 0,0 l/m 2 min 0 min 517 W/m 27,2 km/h (4 Bft)
01.07.2015 17:52 34,9 C 28,3 C 40 % 0 lf 1015,0 hPa 0,0 l/m 2 min 0 min 516 W/m 23,0 km/h (4 Bft)
01.07.2015 17:54 34,9 C 27,8 C 40 % 0 lf 1014,9 hPa 0,0 l/m 2 min 0 min 507 W/m 16,7 km/h (3 Bft)
01.07.2015 17:56 34,8 C 26,1 C 41 % 0 lf 1015,0 hPa 0,0 l/m 2 min 0 min 501 W/m 29,3 km/h (5 Bft)
01.07.2015 17:58 34,7 C 26,1 C 40 % 0 lf 1015,0 hPa 0,0 l/m 2 min 0 min 503 W/m 29,3 km/h (5 Bft)
01.07.2015 18:00 34,7 C 24,4 C 40 % 0 lf 1015,0 hPa 0,0 l/m 2 min 0 min 499 W/m 20,9 km/h (4 Bft)
01.07.2015 18:02 34,6 C 23,9 C 40 % 0 lf 1014,9 hPa 0,0 l/m 2 min 0 min 494 W/m 23,0 km/h (4 Bft)
01.07.2015 18:05 34,5 C 23,3 C 41 % 0 lf 1014,9 hPa 0,0 l/m 2 min 0 min 488 W/m 20,9 km/h (4 Bft)
01.07.2015 18:06 34,4 C 22,8 C 41 % 0 lf 1014,9 hPa 0,0 l/m 1 min 0 min 483 W/m 20,9 km/h (4 Bft)
01.07.2015 18:08 34,4 C 22,2 C 42 % 0 lf 1014,9 hPa 0,0 l/m 2 min 0 min 479 W/m 12,6 km/h (3 Bft)
01.07.2015 18:10 34,4 C 22,2 C 41 % 0 lf 1014,9 hPa 0,0 l/m 2 min 0 min 475 W/m 23,0 km/h (4 Bft)
01.07.2015 18:12 34,3 C 22,2 C 42 % 0 lf 1014,9 hPa 0,0 l/m 2 min 0 min 470 W/m 29,3 km/h (5 Bft)
01.07.2015 18:14 34,3 C 22,8 C 41 % 0 lf 1015,0 hPa 0,0 l/m 2 min 0 min 465 W/m 27,2 km/h (4 Bft)
01.07.2015 18:16 34,2 C 21,7 C 41 % 0 lf 1015,0 hPa 0,0 l/m 2 min 0 min 459 W/m 29,3 km/h (5 Bft)
01.07.2015 18:18 34,2 C 21,7 C 41 % 0 lf 1014,9 hPa 0,0 l/m 2 min 0 min 453 W/m 27,2 km/h (4 Bft)
01.07.2015 18:20 34,2 C 21,1 C 42 % 0 lf 1014,9 hPa 0,0 l/m 2 min 0 min 446 W/m 14,6 km/h (3 Bft)
01.07.2015 18:22 34,1 C 21,1 C 42 % 0 lf 1015,0 hPa 0,0 l/m 2 min 0 min 439 W/m 25,1 km/h (4 Bft)
01.07.2015 18:24 34,1 C 21,1 C 42 % 0 lf 1014,9 hPa 0,0 l/m 2 min 0 min 434 W/m 14,6 km/h (3 Bft)
01.07.2015 18:26 34,1 C 21,1 C 42 % 0 lf 1014,9 hPa 0,0 l/m 2 min 0 min 429 W/m 27,2 km/h (4 Bft)
01.07.2015 18:28 34,0 C 21,7 C 42 % 0 lf 1014,9 hPa 0,0 l/m 2 min 0 min 424 W/m 31,4 km/h (5 Bft)
01.07.2015 18:30 34,0 C 21,1 C 43 % 0 lf 1014,9 hPa 0,0 l/m 2 min 0 min 417 W/m 20,9 km/h (4 Bft)
01.07.2015 18:32 33,9 C 21,1 C 43 % 0 lf 1014,9 hPa 0,0 l/m 2 min 0 min 413 W/m 23,0 km/h (4 Bft)
01.07.2015 18:34 33,9 C 21,1 C 43 % 0 lf 1014,8 hPa 0,0 l/m 2 min 0 min 408 W/m 23,0 km/h (4 Bft)
01.07.2015 18:36 33,8 C 21,1 C 43 % 0 lf 1014,9 hPa 0,0 l/m 2 min 0 min 403 W/m 20,9 km/h (4 Bft)
01.07.2015 18:38 33,8 C 21,1 C 43 % 0 lf 1014,9 hPa 0,0 l/m 2 min 0 min 398 W/m 23,0 km/h (4 Bft)
01.07.2015 18:40 33,7 C 20,6 C 43 % 0 lf 1014,9 hPa 0,0 l/m 2 min 0 min 389 W/m 20,9 km/h (4 Bft)
01.07.2015 18:42 33,7 C 20,6 C 43 % 0 lf 1014,8 hPa 0,0 l/m 2 min 0 min 381 W/m 16,7 km/h (3 Bft)
01.07.2015 18:44 33,6 C 20,6 C 43 % 0 lf 1014,8 hPa 0,0 l/m 2 min 0 min 382 W/m 25,1 km/h (4 Bft)
01.07.2015 18:46 33,6 C 20,6 C 43 % 0 lf 1014,8 hPa 0,0 l/m 2 min 0 min 378 W/m 18,8 km/h (3 Bft)
01.07.2015 18:48 33,5 C 20,6 C 43 % 0 lf 1014,8 hPa 0,0 l/m 2 min 0 min 372 W/m 18,8 km/h (3 Bft)
01.07.2015 18:50 33,5 C 20,6 C 44 % 0 lf 1014,8 hPa 0,0 l/m 2 min 0 min 366 W/m 20,9 km/h (4 Bft)
01.07.2015 18:52 33,4 C 20,6 C 43 % 0 lf 1014,7 hPa 0,0 l/m 2 min 0 min 361 W/m 27,2 km/h (4 Bft)
01.07.2015 18:54 33,4 C 20,6 C 44 % 0 lf 1014,7 hPa 0,0 l/m 2 min 0 min 355 W/m 27,2 km/h (4 Bft)
01.07.2015 18:56 33,3 C 20,6 C 44 % 0 lf 1014,7 hPa 0,0 l/m 2 min 0 min 348 W/m 23,0 km/h (4 Bft)
01.07.2015 18:58 33,3 C 20,6 C 43 % 0 lf 1014,7 hPa 0,0 l/m 2 min 0 min 342 W/m 25,1 km/h (4 Bft)
01.07.2015 19:00 33,2 C 21,1 C 43 % 0 lf 1014,7 hPa 0,0 l/m 2 min 0 min 336 W/m 29,3 km/h (5 Bft)
01.07.2015 19:02 33,1 C 22,2 C 43 % 0 lf 1014,7 hPa 0,0 l/m 2 min 0 min 331 W/m 20,9 km/h (4 Bft)
01.07.2015 19:04 33,1 C 23,9 C 43 % 0 lf 1014,6 hPa 0,0 l/m 2 min 0 min 328 W/m 25,1 km/h (4 Bft)
01.07.2015 19:06 33,1 C 24,4 C 44 % 0 lf 1014,7 hPa 0,0 l/m 2 min 0 min 324 W/m 20,9 km/h (4 Bft)
01.07.2015 19:08 33,1 C 24,4 C 44 % 0 lf 1014,6 hPa 0,0 l/m 2 min 0 min 320 W/m 16,7 km/h (3 Bft)
01.07.2015 19:10 33,1 C 25,0 C 43 % 0 lf 1014,6 hPa 0,0 l/m 2 min 0 min 314 W/m 18,8 km/h (3 Bft)
01.07.2015 19:12 33,0 C 26,1 C 43 % 0 lf 1014,7 hPa 0,0 l/m 2 min 0 min 308 W/m 18,8 km/h (3 Bft)
01.07.2015 19:14 33,0 C 26,1 C 44 % 0 lf 1014,6 hPa 0,0 l/m 2 min 0 min 304 W/m 20,9 km/h (4 Bft)
01.07.2015 19:16 33,0 C 26,7 C 44 % 0 lf 1014,6 hPa 0,0 l/m 2 min 0 min 297 W/m 27,2 km/h (4 Bft)
01.07.2015 19:18 32,9 C 27,2 C 43 % 0 lf 1014,6 hPa 0,0 l/m 2 min 0 min 293 W/m 25,1 km/h (4 Bft)
01.07.2015 19:20 32,9 C 27,2 C 44 % 0 lf 1014,7 hPa 0,0 l/m 2 min 0 min 288 W/m 20,9 km/h (4 Bft)
01.07.2015 19:22 32,9 C 27,2 C 44 % 0 lf 1014,6 hPa 0,0 l/m 2 min 0 min 284 W/m 16,7 km/h (3 Bft)
01.07.2015 19:24 32,9 C 27,2 C 43 % 0 lf 1014,7 hPa 0,0 l/m 2 min 0 min 278 W/m 18,8 km/h (3 Bft)
01.07.2015 19:26 32,9 C 27,2 C 44 % 0 lf 1014,6 hPa 0,0 l/m 2 min 0 min 273 W/m 18,8 km/h (3 Bft)
01.07.2015 19:28 32,8 C 27,2 C 43 % 0 lf 1014,6 hPa 0,0 l/m 2 min 0 min 268 W/m 23,0 km/h (4 Bft)
01.07.2015 19:30 32,8 C 27,8 C 43 % 0 lf 1014,6 hPa 0,0 l/m 2 min 0 min 262 W/m 20,9 km/h (4 Bft)
01.07.2015 19:32 32,8 C 27,2 C 43 % 0 lf 1014,7 hPa 0,0 l/m 2 min 0 min 257 W/m 18,8 km/h (3 Bft)
01.07.2015 19:34 32,8 C 27,8 C 44 % 0 lf 1014,7 hPa 0,0 l/m 2 min 0 min 252 W/m 20,9 km/h (4 Bft)
01.07.2015 19:36 32,7 C 27,8 C 44 % 0 lf 1014,7 hPa 0,0 l/m 2 min 0 min 245 W/m 20,9 km/h (4 Bft)
01.07.2015 19:38 32,7 C 27,8 C 43 % 0 lf 1014,7 hPa 0,0 l/m 2 min 0 min 239 W/m 18,8 km/h (3 Bft)
01.07.2015 19:40 32,7 C 27,8 C 43 % 0 lf 1014,7 hPa 0,0 l/m 2 min 0 min 233 W/m 25,1 km/h (4 Bft)
01.07.2015 19:42 32,6 C 27,8 C 43 % 0 lf 1014,8 hPa 0,0 l/m 2 min 0 min 227 W/m 18,8 km/h (3 Bft)
01.07.2015 19:44 32,6 C 27,8 C 43 % 0 lf 1014,8 hPa 0,0 l/m 2 min 0 min 220 W/m 20,9 km/h (4 Bft)
01.07.2015 19:46 32,6 C 27,8 C 43 % 0 lf 1014,8 hPa 0,0 l/m 2 min 0 min 215 W/m 18,8 km/h (3 Bft)
01.07.2015 19:48 32,6 C 27,8 C 43 % 0 lf 1014,8 hPa 0,0 l/m 2 min 0 min 210 W/m 25,1 km/h (4 Bft)
01.07.2015 19:50 32,5 C 28,3 C 43 % 0 lf 1014,8 hPa 0,0 l/m 2 min 0 min 205 W/m 18,8 km/h (3 Bft)
01.07.2015 19:52 32,5 C 27,8 C 43 % 0 lf 1014,8 hPa 0,0 l/m 2 min 0 min 199 W/m 23,0 km/h (4 Bft)
01.07.2015 19:54 32,5 C 27,8 C 43 % 0 lf 1014,9 hPa 0,0 l/m 2 min 0 min 193 W/m 20,9 km/h (4 Bft)
01.07.2015 19:56 32,4 C 27,8 C 43 % 0 lf 1014,8 hPa 0,0 l/m 2 min 0 min 186 W/m 18,8 km/h (3 Bft)
01.07.2015 19:58 32,4 C 27,8 C 43 % 0 lf 1014,8 hPa 0,0 l/m 2 min 0 min 182 W/m 23,0 km/h (4 Bft)
01.07.2015 20:00 32,4 C 27,8 C 43 % 0 lf 1014,8 hPa 0,0 l/m 2 min 0 min 176 W/m 20,9 km/h (4 Bft)
01.07.2015 20:02 32,4 C 27,8 C 43 % 0 lf 1014,8 hPa 0,0 l/m 2 min 0 min 170 W/m 18,8 km/h (3 Bft)
01.07.2015 20:04 32,3 C 27,8 C 43 % 0 lf 1014,8 hPa 0,0 l/m 2 min 0 min 153 W/m 18,8 km/h (3 Bft)
01.07.2015 20:06 32,3 C 27,8 C 43 % 0 lf 1014,8 hPa 0,0 l/m 2 min 0 min 126 W/m 18,8 km/h (3 Bft)
01.07.2015 20:08 32,2 C 27,8 C 43 % 0 lf 1014,8 hPa 0,0 l/m 2 min 0 min 145 W/m 18,8 km/h (3 Bft)
01.07.2015 20:10 32,2 C 27,2 C 43 % 0 lf 1014,8 hPa 0,0 l/m 2 min 0 min 147 W/m 14,6 km/h (3 Bft)
01.07.2015 20:12 32,2 C 27,2 C 43 % 0 lf 1014,8 hPa 0,0 l/m 2 min 0 min 142 W/m 18,8 km/h (3 Bft)
01.07.2015 20:14 32,1 C 27,2 C 43 % 0 lf 1014,8 hPa 0,0 l/m 2 min 0 min 139 W/m 16,7 km/h (3 Bft)
01.07.2015 20:16 32,1 C 27,2 C 43 % 0 lf 1014,7 hPa 0,0 l/m 2 min 0 min 134 W/m 16,7 km/h (3 Bft)
01.07.2015 20:18 32,0 C 27,8 C 43 % 0 lf 1014,7 hPa 0,0 l/m 2 min 0 min 130 W/m 18,8 km/h (3 Bft)
01.07.2015 20:20 31,9 C 27,2 C 43 % 0 lf 1014,8 hPa 0,0 l/m 2 min 0 min 125 W/m 20,9 km/h (4 Bft)
01.07.2015 20:22 31,9 C 27,2 C 44 % 0 lf 1014,8 hPa 0,0 l/m 2 min 0 min 120 W/m 14,6 km/h (3 Bft)
01.07.2015 20:24 31,9 C 27,2 C 43 % 0 lf 1014,9 hPa 0,0 l/m 2 min 0 min 114 W/m 23,0 km/h (4 Bft)
01.07.2015 20:26 31,9 C 27,2 C 43 % 0 lf 1014,9 hPa 0,0 l/m 2 min 0 min 110 W/m 14,6 km/h (3 Bft)
01.07.2015 20:28 31,8 C 27,2 C 43 % 0 lf 1014,9 hPa 0,0 l/m 2 min 0 min 105 W/m 25,1 km/h (4 Bft)
01.07.2015 20:30 31,7 C 27,8 C 44 % 0 lf 1014,9 hPa 0,0 l/m 2 min 0 min 100 W/m 20,9 km/h (4 Bft)
01.07.2015 20:32 31,7 C 27,2 C 44 % 0 lf 1014,9 hPa 0,0 l/m 2 min 0 min 95 W/m 23,0 km/h (4 Bft)
01.07.2015 20:34 31,7 C 27,2 C 44 % 0 lf 1015,0 hPa 0,0 l/m 2 min 0 min 92 W/m 18,8 km/h (3 Bft)
01.07.2015 20:36 31,6 C 27,2 C 44 % 0 lf 1015,0 hPa 0,0 l/m 2 min 0 min 89 W/m 20,9 km/h (4 Bft)
01.07.2015 20:38 31,6 C 27,8 C 44 % 0 lf 1014,9 hPa 0,0 l/m 2 min 0 min 85 W/m 18,8 km/h (3 Bft)
01.07.2015 20:40 31,6 C 27,8 C 44 % 0 lf 1014,9 hPa 0,0 l/m 2 min 0 min 82 W/m 23,0 km/h (4 Bft)
01.07.2015 20:42 31,5 C 27,8 C 44 % 0 lf 1014,9 hPa 0,0 l/m 2 min 0 min 77 W/m 14,6 km/h (3 Bft)
01.07.2015 20:44 31,5 C 27,2 C 44 % 0 lf 1014,9 hPa 0,0 l/m 2 min 0 min 73 W/m 18,8 km/h (3 Bft)
01.07.2015 20:46 31,4 C 27,2 C 44 % 0 lf 1014,9 hPa 0,0 l/m 2 min 0 min 71 W/m 23,0 km/h (4 Bft)
01.07.2015 20:48 31,4 C 27,2 C 44 % 0 lf 1014,9 hPa 0,0 l/m 2 min 0 min 67 W/m 16,7 km/h (3 Bft)
01.07.2015 20:50 31,4 C 27,2 C 45 % 0 lf 1014,9 hPa 0,0 l/m 2 min 0 min 63 W/m 16,7 km/h (3 Bft)
01.07.2015 20:52 31,3 C 27,2 C 44 % 0 lf 1014,9 hPa 0,0 l/m 2 min 0 min 60 W/m 18,8 km/h (3 Bft)
01.07.2015 20:54 31,3 C 27,2 C 45 % 0 lf 1014,9 hPa 0,0 l/m 0 min 0 min 56 W/m 12,6 km/h (3 Bft)
01.07.2015 20:56 31,3 C 26,7 C 45 % 0 lf 1014,9 hPa 0,0 l/m 0 min 0 min 54 W/m 16,7 km/h (3 Bft)
01.07.2015 20:58 31,2 C 26,7 C 45 % 0 lf 1014,9 hPa 0,0 l/m 0 min 0 min 51 W/m 16,7 km/h (3 Bft)
01.07.2015 21:00 31,2 C 26,7 C 45 % 0 lf 1015,0 hPa 0,0 l/m 0 min 0 min 47 W/m 16,7 km/h (3 Bft)
01.07.2015 21:02 31,1 C 26,7 C 44 % 0 lf 1015,0 hPa 0,0 l/m 0 min 0 min 45 W/m 16,7 km/h (3 Bft)
01.07.2015 21:04 31,1 C 26,7 C 45 % 0 lf 1014,9 hPa 0,0 l/m 0 min 0 min 42 W/m 18,8 km/h (3 Bft)
01.07.2015 21:06 31,1 C 26,7 C 45 % 0 lf 1015,0 hPa 0,0 l/m 0 min 0 min 40 W/m 25,1 km/h (4 Bft)
01.07.2015 21:08 31,0 C 26,7 C 45 % 0 lf 1015,0 hPa 0,0 l/m 0 min 0 min 38 W/m 14,6 km/h (3 Bft)
01.07.2015 21:10 30,9 C 26,7 C 45 % 0 lf 1015,0 hPa 0,0 l/m 0 min 0 min 35 W/m 20,9 km/h (4 Bft)
01.07.2015 21:12 30,9 C 26,7 C 45 % 0 lf 1015,0 hPa 0,0 l/m 0 min 0 min 33 W/m 23,0 km/h (4 Bft)
01.07.2015 21:14 30,8 C 26,7 C 45 % 0 lf 1015,0 hPa 0,0 l/m 0 min 0 min 32 W/m 23,0 km/h (4 Bft)
01.07.2015 21:16 30,8 C 26,7 C 45 % 0 lf 1015,0 hPa 0,0 l/m 0 min 0 min 30 W/m 18,8 km/h (3 Bft)
01.07.2015 21:18 30,7 C 26,7 C 45 % 0 lf 1015,0 hPa 0,0 l/m 0 min 0 min 28 W/m 18,8 km/h (3 Bft)
01.07.2015 21:20 30,7 C 26,7 C 45 % 0 lf 1015,0 hPa 0,0 l/m 0 min 0 min 27 W/m 16,7 km/h (3 Bft)
01.07.2015 21:22 30,6 C 26,7 C 46 % 0 lf 1015,0 hPa 0,0 l/m 2 min 0 min 26 W/m 16,7 km/h (3 Bft)
01.07.2015 21:24 30,6 C 24,4 C 47 % 0 lf 1015,1 hPa 0,0 l/m 2 min 0 min 25 W/m 16,7 km/h (3 Bft)
01.07.2015 21:26 30,5 C 21,1 C 46 % 0 lf 1015,0 hPa 0,0 l/m 2 min 0 min 25 W/m 20,9 km/h (4 Bft)
01.07.2015 21:28 30,4 C 20,6 C 46 % 0 lf 1015,0 hPa 0,0 l/m 2 min 0 min 23 W/m 18,8 km/h (3 Bft)
01.07.2015 21:30 30,4 C 20,0 C 47 % 0 lf 1015,0 hPa 0,0 l/m 2 min 0 min 21 W/m 16,7 km/h (3 Bft)
01.07.2015 21:32 30,3 C 20,6 C 47 % 0 lf 1015,0 hPa 0,0 l/m 2 min 0 min 21 W/m 16,7 km/h (3 Bft)
01.07.2015 21:34 30,3 C 20,6 C 47 % 0 lf 1015,0 hPa 0,0 l/m 2 min 0 min 19 W/m 10,5 km/h (2 Bft)
01.07.2015 21:36 30,2 C 20,6 C 47 % 0 lf 1015,1 hPa 0,0 l/m 2 min 0 min 19 W/m 18,8 km/h (3 Bft)
01.07.2015 21:38 30,1 C 21,1 C 47 % 0 lf 1015,1 hPa 0,0 l/m 0 min 0 min 18 W/m 18,8 km/h (3 Bft)
01.07.2015 21:40 30,1 C 21,1 C 48 % 0 lf 1015,1 hPa 0,0 l/m 0 min 0 min 17 W/m 10,5 km/h (2 Bft)
01.07.2015 21:42 30,0 C 20,6 C 48 % 0 lf 1015,1 hPa 0,0 l/m 0 min 0 min 16 W/m 12,6 km/h (3 Bft)
01.07.2015 21:44 29,9 C 20,6 C 48 % 0 lf 1015,0 hPa 0,0 l/m 0 min 0 min 15 W/m 16,7 km/h (3 Bft)
01.07.2015 21:46 29,8 C 21,1 C 48 % 0 lf 1015,2 hPa 0,0 l/m 0 min 0 min 14 W/m 10,5 km/h (2 Bft)
01.07.2015 21:48 29,8 C 21,1 C 48 % 0 lf 1015,2 hPa 0,0 l/m 0 min 0 min 12 W/m 12,6 km/h (3 Bft)
01.07.2015 21:50 29,7 C 21,1 C 48 % 0 lf 1015,1 hPa 0,0 l/m 0 min 0 min 12 W/m 10,5 km/h (2 Bft)
01.07.2015 21:52 29,6 C 21,1 C 48 % 0 lf 1015,2 hPa 0,0 l/m 0 min 0 min 12 W/m 16,7 km/h (3 Bft)
01.07.2015 21:54 29,6 C 21,1 C 48 % 0 lf 1015,2 hPa 0,0 l/m 0 min 0 min 11 W/m 10,5 km/h (2 Bft)
01.07.2015 21:56 29,5 C 21,1 C 48 % 0 lf 1015,2 hPa 0,0 l/m 0 min 0 min 11 W/m 8,4 km/h (2 Bft)
01.07.2015 21:58 29,4 C 21,1 C 49 % 0 lf 1015,3 hPa 0,0 l/m 0 min 0 min 10 W/m 12,6 km/h (3 Bft)
01.07.2015 22:00 29,4 C 21,1 C 49 % 0 lf 1015,3 hPa 0,0 l/m 0 min 0 min 9 W/m 14,6 km/h (3 Bft)
01.07.2015 22:02 29,3 C 21,1 C 49 % 0 lf 1015,3 hPa 0,0 l/m 0 min 0 min 9 W/m 10,5 km/h (2 Bft)
01.07.2015 22:04 29,3 C 21,1 C 49 % 0 lf 1015,3 hPa 0,0 l/m 0 min 0 min 8 W/m 10,5 km/h (2 Bft)
01.07.2015 22:06 29,2 C 21,1 C 49 % 0 lf 1015,4 hPa 0,0 l/m 0 min 0 min 7 W/m 10,5 km/h (2 Bft)
01.07.2015 22:08 29,2 C 21,1 C 50 % 0 lf 1015,4 hPa 0,0 l/m 0 min 0 min 7 W/m 8,4 km/h (2 Bft)
01.07.2015 22:10 29,1 C 21,1 C 50 % 0 lf 1015,4 hPa 0,0 l/m 0 min 0 min 6 W/m 10,5 km/h (2 Bft)
01.07.2015 22:12 29,0 C 21,1 C 50 % 0 lf 1015,5 hPa 0,0 l/m 0 min 0 min 5 W/m 10,5 km/h (2 Bft)
01.07.2015 22:14 29,0 C 21,7 C 50 % 0 lf 1015,5 hPa 0,0 l/m 0 min 0 min 5 W/m 10,5 km/h (2 Bft)
01.07.2015 22:16 28,9 C 21,1 C 50 % 0 lf 1015,5 hPa 0,0 l/m 0 min 0 min 5 W/m 12,6 km/h (3 Bft)
01.07.2015 22:18 28,8 C 21,7 C 51 % 0 lf 1015,5 hPa 0,0 l/m 0 min 0 min 5 W/m 12,6 km/h (3 Bft)
01.07.2015 22:20 28,8 C 21,7 C 50 % 0 lf 1015,6 hPa 0,0 l/m 0 min 0 min 5 W/m 12,6 km/h (3 Bft)
01.07.2015 22:22 28,7 C 22,2 C 51 % 0 lf 1015,6 hPa 0,0 l/m 0 min 0 min 5 W/m 12,6 km/h (3 Bft)
01.07.2015 22:24 28,7 C 22,2 C 51 % 0 lf 1015,6 hPa 0,0 l/m 0 min 0 min 5 W/m 12,6 km/h (3 Bft)
01.07.2015 22:26 28,6 C 22,2 C 51 % 0 lf 1015,6 hPa 0,0 l/m 0 min 0 min 5 W/m 10,5 km/h (2 Bft)
01.07.2015 22:28 28,6 C 22,2 C 51 % 0 lf 1015,6 hPa 0,0 l/m 0 min 0 min 5 W/m 10,5 km/h (2 Bft)
01.07.2015 22:30 28,5 C 22,2 C 51 % 0 lf 1015,6 hPa 0,0 l/m 0 min 0 min 5 W/m 14,6 km/h (3 Bft)
01.07.2015 22:32 28,4 C 22,2 C 52 % 0 lf 1015,6 hPa 0,0 l/m 0 min 0 min 5 W/m 10,5 km/h (2 Bft)
01.07.2015 22:34 28,4 C 22,2 C 52 % 0 lf 1015,6 hPa 0,0 l/m 0 min 0 min 5 W/m 16,7 km/h (3 Bft)
01.07.2015 22:36 28,3 C 22,2 C 52 % 0 lf 1015,7 hPa 0,0 l/m 0 min 0 min 5 W/m 16,7 km/h (3 Bft)
01.07.2015 22:38 28,3 C 22,8 C 52 % 0 lf 1015,7 hPa 0,0 l/m 0 min 0 min 5 W/m 12,6 km/h (3 Bft)
01.07.2015 22:40 28,2 C 22,2 C 53 % 0 lf 1015,7 hPa 0,0 l/m 0 min 0 min 5 W/m 14,6 km/h (3 Bft)
01.07.2015 22:42 28,2 C 22,8 C 53 % 0 lf 1015,7 hPa 0,0 l/m 0 min 0 min 5 W/m 18,8 km/h (3 Bft)
01.07.2015 22:44 28,1 C 22,8 C 53 % 0 lf 1015,7 hPa 0,0 l/m 0 min 0 min 5 W/m 12,6 km/h (3 Bft)
01.07.2015 22:46 28,0 C 22,8 C 53 % 0 lf 1015,7 hPa 0,0 l/m 0 min 0 min 5 W/m 14,6 km/h (3 Bft)
01.07.2015 22:48 28,0 C 22,8 C 53 % 0 lf 1015,7 hPa 0,0 l/m 0 min 0 min 5 W/m 10,5 km/h (2 Bft)
01.07.2015 22:50 27,9 C 22,8 C 54 % 0 lf 1015,7 hPa 0,0 l/m 0 min 0 min 5 W/m 16,7 km/h (3 Bft)
01.07.2015 22:52 27,9 C 22,8 C 54 % 0 lf 1015,7 hPa 0,0 l/m 0 min 0 min 5 W/m 12,6 km/h (3 Bft)
01.07.2015 22:54 27,8 C 22,8 C 54 % 0 lf 1015,7 hPa 0,0 l/m 0 min 0 min 5 W/m 16,7 km/h (3 Bft)
01.07.2015 22:56 27,8 C 23,3 C 54 % 0 lf 1015,7 hPa 0,0 l/m 0 min 0 min 5 W/m 16,7 km/h (3 Bft)
01.07.2015 22:58 27,8 C 23,3 C 54 % 0 lf 1015,8 hPa 0,0 l/m 0 min 0 min 5 W/m 12,6 km/h (3 Bft)
01.07.2015 23:00 27,7 C 22,8 C 54 % 0 lf 1015,7 hPa 0,0 l/m 0 min 0 min 5 W/m 12,6 km/h (3 Bft)
01.07.2015 23:02 27,7 C 23,3 C 54 % 0 lf 1015,7 hPa 0,0 l/m 0 min 0 min 5 W/m 14,6 km/h (3 Bft)
01.07.2015 23:04 27,7 C 23,3 C 55 % 0 lf 1015,8 hPa 0,0 l/m 0 min 0 min 5 W/m 14,6 km/h (3 Bft)
01.07.2015 23:06 27,6 C 23,3 C 55 % 0 lf 1015,7 hPa 0,0 l/m 0 min 0 min 5 W/m 20,9 km/h (4 Bft)
01.07.2015 23:08 27,6 C 23,3 C 55 % 0 lf 1015,7 hPa 0,0 l/m 0 min 0 min 5 W/m 16,7 km/h (3 Bft)
01.07.2015 23:10 27,6 C 23,3 C 55 % 0 lf 1015,8 hPa 0,0 l/m 0 min 0 min 5 W/m 16,7 km/h (3 Bft)
01.07.2015 23:12 27,6 C 23,3 C 55 % 0 lf 1015,8 hPa 0,0 l/m 0 min 0 min 5 W/m 12,6 km/h (3 Bft)
01.07.2015 23:14 27,5 C 22,8 C 55 % 0 lf 1015,8 hPa 0,0 l/m 0 min 0 min 5 W/m 8,4 km/h (2 Bft)
01.07.2015 23:16 27,5 C 22,8 C 55 % 0 lf 1015,8 hPa 0,0 l/m 0 min 0 min 5 W/m 10,5 km/h (2 Bft)
01.07.2015 23:18 27,4 C 23,3 C 55 % 0 lf 1015,8 hPa 0,0 l/m 0 min 0 min 5 W/m 12,6 km/h (3 Bft)
01.07.2015 23:20 27,4 C 23,3 C 55 % 0 lf 1015,8 hPa 0,0 l/m 0 min 0 min 5 W/m 14,6 km/h (3 Bft)
01.07.2015 23:22 27,4 C 23,3 C 55 % 0 lf 1015,8 hPa 0,0 l/m 0 min 0 min 5 W/m 10,5 km/h (2 Bft)
01.07.2015 23:24 27,4 C 22,8 C 55 % 0 lf 1015,8 hPa 0,0 l/m 0 min 0 min 5 W/m 10,5 km/h (2 Bft)
01.07.2015 23:26 27,4 C 22,8 C 56 % 0 lf 1015,8 hPa 0,0 l/m 0 min 0 min 5 W/m 8,4 km/h (2 Bft)
01.07.2015 23:28 27,3 C 22,8 C 56 % 0 lf 1015,8 hPa 0,0 l/m 0 min 0 min 5 W/m 8,4 km/h (2 Bft)
01.07.2015 23:30 27,3 C 22,8 C 56 % 0 lf 1015,8 hPa 0,0 l/m 0 min 0 min 5 W/m 8,4 km/h (2 Bft)
01.07.2015 23:32 27,3 C 22,8 C 56 % 0 lf 1015,9 hPa 0,0 l/m 0 min 0 min 5 W/m 12,6 km/h (3 Bft)
01.07.2015 23:34 27,2 C 22,8 C 56 % 0 lf 1015,8 hPa 0,0 l/m 0 min 0 min 5 W/m 12,6 km/h (3 Bft)
01.07.2015 23:36 27,2 C 22,8 C 56 % 0 lf 1015,8 hPa 0,0 l/m 0 min 0 min 5 W/m 12,6 km/h (3 Bft)
01.07.2015 23:38 27,2 C 22,8 C 56 % 0 lf 1015,8 hPa 0,0 l/m 0 min 0 min 5 W/m 10,5 km/h (2 Bft)
01.07.2015 23:40 27,2 C 22,8 C 56 % 0 lf 1015,9 hPa 0,0 l/m 0 min 0 min 5 W/m 8,4 km/h (2 Bft)
01.07.2015 23:42 27,1 C 22,8 C 56 % 0 lf 1015,9 hPa 0,0 l/m 0 min 0 min 5 W/m 6,3 km/h (2 Bft)
01.07.2015 23:44 27,1 C 22,2 C 57 % 0 lf 1015,9 hPa 0,0 l/m 0 min 0 min 5 W/m 8,4 km/h (2 Bft)
01.07.2015 23:46 27,0 C 22,2 C 57 % 0 lf 1015,9 hPa 0,0 l/m 0 min 0 min 5 W/m 6,3 km/h (2 Bft)
01.07.2015 23:48 27,0 C 22,2 C 57 % 0 lf 1015,9 hPa 0,0 l/m 0 min 0 min 5 W/m 8,4 km/h (2 Bft)
01.07.2015 23:50 26,9 C 21,7 C 57 % 0 lf 1015,9 hPa 0,0 l/m 0 min 0 min 5 W/m 8,4 km/h (2 Bft)
01.07.2015 23:52 26,9 C 22,2 C 57 % 0 lf 1015,9 hPa 0,0 l/m 0 min 0 min 5 W/m 8,4 km/h (2 Bft)
01.07.2015 23:54 26,9 C 21,7 C 57 % 0 lf 1015,9 hPa 0,0 l/m 0 min 0 min 5 W/m 8,4 km/h (2 Bft)
01.07.2015 23:56 26,8 C 21,7 C 57 % 0 lf 1015,9 hPa 0,0 l/m 0 min 0 min 5 W/m 8,4 km/h (2 Bft)
01.07.2015 23:58 26,8 C 21,7 C 57 % 0 lf 1015,9 hPa 0,0 l/m 0 min 0 min 5 W/m 6,3 km/h (2 Bft)
_ Min-Zeit 05:14 03:26 15:00 00:00 19:04 - - - - 01:42
Minimum _ 16,8 C 14,4 C 36 % 0 lf 1014,6 hPa - - - - 0,0 km/h (0 Bft)
_ Max-Zeit 16:54 15:58 05:24 00:00 00:00 00:00 05:44 00:00 12:52 12:48
Maximum _ 35,6 C 37,8 C 81 % 0 lf 1018,5 hPa 0,0 l/m 2 min 0 min 954 W/m 39,7 km/h
O-SO (6 Bft)
Durchschnitt _ 26,8 C 23,8 C 56 % 0 lf 1016,8 hPa #0,0 l/m #14:38 h #0 min. 434 W/m 16,7 km/h (3 Bft)
© 2015 W. Hausmann